﻿<?xml version="1.0" encoding="UTF-8" standalone="no" ?>
<gpx xmlns="http://www.topografix.com/GPX/1/1" creator="CompeGPS" version="1.1" xmlns:xsi="http://www.w3.org/2001/XMLSchema-instance" xsi:schemaLocation="http://www.topografix.com/GPX/1/1 http://www.topografix.com/GPX/1/1/gpx.xsd http://www.garmin.com/xmlschemas/GpxExtensions/v3 http://www.garmin.com/xmlschemas/GpxExtensionsv3.xsd http://www.garmin.com/xmlschemas/TrackPointExtension/v1 http://www.garmin.com/xmlschemas/TrackPointExtensionv1.xsd" xmlns:gpxtpx="http://www.garmin.com/xmlschemas/TrackPointExtension/v1">
  <metadata>
    <link href="http://www.compegps.com">
      <text>CompeGPS TEAM, SL</text>
    </link>
    <time>2019-06-23T17:57:49Z</time>
    <bounds maxlat="43.649579" maxlon="2.339591" minlat="43.630389" minlon="2.318385"/>
  </metadata>
  <trk>
    <name>Burlats_cascade</name>
    <userMyTwoNav></userMyTwoNav>
    <serialNumber></serialNumber>
    <trkseg>
      <trkpt lat="43.636655" lon="2.319096">
        <ele>191.1</ele>
        <time>2019-06-23T08:36:24Z</time>
      </trkpt>
      <trkpt lat="43.636612" lon="2.318970">
        <ele>194.7</ele>
        <time>2019-06-23T08:36:35Z</time>
      </trkpt>
      <trkpt lat="43.636519" lon="2.318912">
        <ele>195.4</ele>
        <time>2019-06-23T08:36:47Z</time>
      </trkpt>
      <trkpt lat="43.636406" lon="2.318889">
        <ele>195.0</ele>
        <time>2019-06-23T08:36:59Z</time>
      </trkpt>
      <trkpt lat="43.636256" lon="2.318875">
        <ele>195.4</ele>
        <time>2019-06-23T08:37:09Z</time>
      </trkpt>
      <trkpt lat="43.636157" lon="2.318822">
        <ele>195.6</ele>
        <time>2019-06-23T08:37:19Z</time>
      </trkpt>
      <trkpt lat="43.636054" lon="2.318788">
        <ele>195.6</ele>
        <time>2019-06-23T08:37:29Z</time>
      </trkpt>
      <trkpt lat="43.635935" lon="2.318733">
        <ele>195.5</ele>
        <time>2019-06-23T08:37:39Z</time>
      </trkpt>
      <trkpt lat="43.635828" lon="2.318647">
        <ele>195.5</ele>
        <time>2019-06-23T08:37:49Z</time>
      </trkpt>
      <trkpt lat="43.635731" lon="2.318587">
        <ele>195.6</ele>
        <time>2019-06-23T08:37:59Z</time>
      </trkpt>
      <trkpt lat="43.635637" lon="2.318533">
        <ele>196.1</ele>
        <time>2019-06-23T08:38:08Z</time>
      </trkpt>
      <trkpt lat="43.635559" lon="2.318467">
        <ele>196.7</ele>
        <time>2019-06-23T08:38:17Z</time>
      </trkpt>
      <trkpt lat="43.635498" lon="2.318469">
        <ele>198.2</ele>
        <time>2019-06-23T08:38:27Z</time>
      </trkpt>
      <trkpt lat="43.635478" lon="2.318547">
        <ele>198.8</ele>
        <time>2019-06-23T08:38:36Z</time>
      </trkpt>
      <trkpt lat="43.635442" lon="2.318646">
        <ele>199.4</ele>
        <time>2019-06-23T08:38:45Z</time>
      </trkpt>
      <trkpt lat="43.635407" lon="2.318763">
        <ele>199.5</ele>
        <time>2019-06-23T08:38:53Z</time>
      </trkpt>
      <trkpt lat="43.635397" lon="2.318895">
        <ele>199.3</ele>
        <time>2019-06-23T08:39:03Z</time>
      </trkpt>
      <trkpt lat="43.635361" lon="2.319016">
        <ele>198.9</ele>
        <time>2019-06-23T08:39:12Z</time>
      </trkpt>
      <trkpt lat="43.635270" lon="2.319090">
        <ele>198.3</ele>
        <time>2019-06-23T08:39:22Z</time>
      </trkpt>
      <trkpt lat="43.635157" lon="2.319079">
        <ele>197.6</ele>
        <time>2019-06-23T08:39:31Z</time>
      </trkpt>
      <trkpt lat="43.635060" lon="2.319017">
        <ele>196.9</ele>
        <time>2019-06-23T08:39:40Z</time>
      </trkpt>
      <trkpt lat="43.634963" lon="2.318952">
        <ele>196.0</ele>
        <time>2019-06-23T08:39:51Z</time>
      </trkpt>
      <trkpt lat="43.634840" lon="2.318980">
        <ele>195.7</ele>
        <time>2019-06-23T08:40:04Z</time>
      </trkpt>
      <trkpt lat="43.634717" lon="2.318965">
        <ele>195.9</ele>
        <time>2019-06-23T08:40:17Z</time>
      </trkpt>
      <trkpt lat="43.634608" lon="2.318921">
        <ele>196.9</ele>
        <time>2019-06-23T08:40:30Z</time>
      </trkpt>
      <trkpt lat="43.634503" lon="2.318826">
        <ele>197.8</ele>
        <time>2019-06-23T08:40:42Z</time>
      </trkpt>
      <trkpt lat="43.634388" lon="2.318766">
        <ele>198.1</ele>
        <time>2019-06-23T08:40:53Z</time>
      </trkpt>
      <trkpt lat="43.634276" lon="2.318705">
        <ele>198.4</ele>
        <time>2019-06-23T08:41:03Z</time>
      </trkpt>
      <trkpt lat="43.634182" lon="2.318645">
        <ele>199.0</ele>
        <time>2019-06-23T08:41:13Z</time>
      </trkpt>
      <trkpt lat="43.634086" lon="2.318599">
        <ele>199.5</ele>
        <time>2019-06-23T08:41:22Z</time>
      </trkpt>
      <trkpt lat="43.634015" lon="2.318536">
        <ele>199.5</ele>
        <time>2019-06-23T08:41:32Z</time>
      </trkpt>
      <trkpt lat="43.633933" lon="2.318528">
        <ele>199.8</ele>
        <time>2019-06-23T08:41:43Z</time>
      </trkpt>
      <trkpt lat="43.633820" lon="2.318573">
        <ele>200.7</ele>
        <time>2019-06-23T08:41:54Z</time>
      </trkpt>
      <trkpt lat="43.633739" lon="2.318653">
        <ele>201.4</ele>
        <time>2019-06-23T08:42:04Z</time>
      </trkpt>
      <trkpt lat="43.633702" lon="2.318779">
        <ele>202.2</ele>
        <time>2019-06-23T08:42:17Z</time>
      </trkpt>
      <trkpt lat="43.633626" lon="2.318902">
        <ele>203.3</ele>
        <time>2019-06-23T08:42:28Z</time>
      </trkpt>
      <trkpt lat="43.633586" lon="2.319046">
        <ele>204.3</ele>
        <time>2019-06-23T08:42:37Z</time>
      </trkpt>
      <trkpt lat="43.633498" lon="2.319148">
        <ele>204.9</ele>
        <time>2019-06-23T08:42:47Z</time>
      </trkpt>
      <trkpt lat="43.633442" lon="2.319266">
        <ele>206.0</ele>
        <time>2019-06-23T08:43:01Z</time>
      </trkpt>
      <trkpt lat="43.633362" lon="2.319383">
        <ele>206.7</ele>
        <time>2019-06-23T08:43:13Z</time>
      </trkpt>
      <trkpt lat="43.633282" lon="2.319532">
        <ele>206.7</ele>
        <time>2019-06-23T08:43:23Z</time>
      </trkpt>
      <trkpt lat="43.633202" lon="2.319677">
        <ele>206.8</ele>
        <time>2019-06-23T08:43:34Z</time>
      </trkpt>
      <trkpt lat="43.633091" lon="2.319799">
        <ele>206.7</ele>
        <time>2019-06-23T08:43:45Z</time>
      </trkpt>
      <trkpt lat="43.632979" lon="2.319870">
        <ele>207.2</ele>
        <time>2019-06-23T08:44:02Z</time>
      </trkpt>
      <trkpt lat="43.632869" lon="2.319962">
        <ele>208.8</ele>
        <time>2019-06-23T08:44:17Z</time>
      </trkpt>
      <trkpt lat="43.632774" lon="2.320032">
        <ele>211.4</ele>
        <time>2019-06-23T08:44:32Z</time>
      </trkpt>
      <trkpt lat="43.632714" lon="2.320168">
        <ele>213.7</ele>
        <time>2019-06-23T08:44:48Z</time>
      </trkpt>
      <trkpt lat="43.632661" lon="2.320310">
        <ele>215.7</ele>
        <time>2019-06-23T08:45:05Z</time>
      </trkpt>
      <trkpt lat="43.632501" lon="2.320347">
        <ele>218.6</ele>
        <time>2019-06-23T08:45:23Z</time>
      </trkpt>
      <trkpt lat="43.632471" lon="2.320478">
        <ele>221.6</ele>
        <time>2019-06-23T08:45:41Z</time>
      </trkpt>
      <trkpt lat="43.632505" lon="2.320568">
        <ele>222.9</ele>
        <time>2019-06-23T08:45:58Z</time>
      </trkpt>
      <trkpt lat="43.632588" lon="2.320712">
        <ele>219.8</ele>
        <time>2019-06-23T08:46:15Z</time>
      </trkpt>
      <trkpt lat="43.632563" lon="2.320831">
        <ele>221.2</ele>
        <time>2019-06-23T08:46:31Z</time>
      </trkpt>
      <trkpt lat="43.632551" lon="2.320946">
        <ele>222.5</ele>
        <time>2019-06-23T08:46:49Z</time>
      </trkpt>
      <trkpt lat="43.632602" lon="2.321130">
        <ele>224.1</ele>
        <time>2019-06-23T08:47:05Z</time>
      </trkpt>
      <trkpt lat="43.632638" lon="2.321302">
        <ele>224.7</ele>
        <time>2019-06-23T08:47:21Z</time>
      </trkpt>
      <trkpt lat="43.632688" lon="2.321522">
        <ele>226.4</ele>
        <time>2019-06-23T08:47:40Z</time>
      </trkpt>
      <trkpt lat="43.632655" lon="2.321691">
        <ele>228.2</ele>
        <time>2019-06-23T08:47:56Z</time>
      </trkpt>
      <trkpt lat="43.632733" lon="2.321729">
        <ele>229.6</ele>
        <time>2019-06-23T08:48:08Z</time>
      </trkpt>
      <trkpt lat="43.632715" lon="2.321790">
        <ele>230.0</ele>
        <time>2019-06-23T08:48:27Z</time>
      </trkpt>
      <trkpt lat="43.632632" lon="2.321909">
        <ele>231.5</ele>
        <time>2019-06-23T08:48:46Z</time>
      </trkpt>
      <trkpt lat="43.632502" lon="2.321920">
        <ele>235.4</ele>
        <time>2019-06-23T08:49:08Z</time>
      </trkpt>
      <trkpt lat="43.632408" lon="2.321980">
        <ele>240.3</ele>
        <time>2019-06-23T08:49:30Z</time>
      </trkpt>
      <trkpt lat="43.632317" lon="2.321997">
        <ele>243.0</ele>
        <time>2019-06-23T08:49:46Z</time>
      </trkpt>
      <trkpt lat="43.632276" lon="2.321931">
        <ele>244.6</ele>
        <time>2019-06-23T08:51:38Z</time>
      </trkpt>
      <trkpt lat="43.632213" lon="2.321752">
        <ele>244.0</ele>
        <time>2019-06-23T08:51:54Z</time>
      </trkpt>
      <trkpt lat="43.632199" lon="2.321544">
        <ele>243.0</ele>
        <time>2019-06-23T08:52:08Z</time>
      </trkpt>
      <trkpt lat="43.632138" lon="2.321367">
        <ele>242.3</ele>
        <time>2019-06-23T08:52:20Z</time>
      </trkpt>
      <trkpt lat="43.632102" lon="2.321212">
        <ele>241.4</ele>
        <time>2019-06-23T08:52:33Z</time>
      </trkpt>
      <trkpt lat="43.632080" lon="2.321089">
        <ele>240.4</ele>
        <time>2019-06-23T08:52:47Z</time>
      </trkpt>
      <trkpt lat="43.631990" lon="2.320900">
        <ele>240.5</ele>
        <time>2019-06-23T08:53:00Z</time>
      </trkpt>
      <trkpt lat="43.631811" lon="2.320809">
        <ele>241.3</ele>
        <time>2019-06-23T08:53:12Z</time>
      </trkpt>
      <trkpt lat="43.631762" lon="2.320682">
        <ele>242.6</ele>
        <time>2019-06-23T08:53:23Z</time>
      </trkpt>
      <trkpt lat="43.631795" lon="2.320500">
        <ele>244.7</ele>
        <time>2019-06-23T08:53:39Z</time>
      </trkpt>
      <trkpt lat="43.631790" lon="2.320293">
        <ele>246.8</ele>
        <time>2019-06-23T08:53:54Z</time>
      </trkpt>
      <trkpt lat="43.631782" lon="2.320092">
        <ele>249.4</ele>
        <time>2019-06-23T08:54:09Z</time>
      </trkpt>
      <trkpt lat="43.631793" lon="2.319951">
        <ele>251.9</ele>
        <time>2019-06-23T08:54:24Z</time>
      </trkpt>
      <trkpt lat="43.631805" lon="2.319807">
        <ele>254.4</ele>
        <time>2019-06-23T08:54:39Z</time>
      </trkpt>
      <trkpt lat="43.631831" lon="2.319599">
        <ele>257.4</ele>
        <time>2019-06-23T08:54:57Z</time>
      </trkpt>
      <trkpt lat="43.631798" lon="2.319404">
        <ele>259.9</ele>
        <time>2019-06-23T08:55:10Z</time>
      </trkpt>
      <trkpt lat="43.631713" lon="2.319438">
        <ele>262.5</ele>
        <time>2019-06-23T08:55:25Z</time>
      </trkpt>
      <trkpt lat="43.631648" lon="2.319569">
        <ele>264.3</ele>
        <time>2019-06-23T08:55:37Z</time>
      </trkpt>
      <trkpt lat="43.631670" lon="2.319663">
        <ele>267.1</ele>
        <time>2019-06-23T08:56:54Z</time>
      </trkpt>
      <trkpt lat="43.631658" lon="2.319789">
        <ele>266.3</ele>
        <time>2019-06-23T08:57:06Z</time>
      </trkpt>
      <trkpt lat="43.631603" lon="2.319948">
        <ele>265.5</ele>
        <time>2019-06-23T08:57:22Z</time>
      </trkpt>
      <trkpt lat="43.631520" lon="2.320121">
        <ele>264.6</ele>
        <time>2019-06-23T08:57:34Z</time>
      </trkpt>
      <trkpt lat="43.631524" lon="2.320268">
        <ele>263.9</ele>
        <time>2019-06-23T08:57:44Z</time>
      </trkpt>
      <trkpt lat="43.631464" lon="2.320423">
        <ele>263.5</ele>
        <time>2019-06-23T08:57:55Z</time>
      </trkpt>
      <trkpt lat="43.631389" lon="2.320545">
        <ele>263.5</ele>
        <time>2019-06-23T08:58:09Z</time>
      </trkpt>
      <trkpt lat="43.631332" lon="2.320640">
        <ele>264.8</ele>
        <time>2019-06-23T08:58:26Z</time>
      </trkpt>
      <trkpt lat="43.631363" lon="2.320808">
        <ele>264.7</ele>
        <time>2019-06-23T08:58:42Z</time>
      </trkpt>
      <trkpt lat="43.631432" lon="2.320956">
        <ele>264.3</ele>
        <time>2019-06-23T08:58:58Z</time>
      </trkpt>
      <trkpt lat="43.631497" lon="2.321108">
        <ele>264.5</ele>
        <time>2019-06-23T08:59:11Z</time>
      </trkpt>
      <trkpt lat="43.631559" lon="2.321292">
        <ele>264.9</ele>
        <time>2019-06-23T08:59:27Z</time>
      </trkpt>
      <trkpt lat="43.631570" lon="2.321470">
        <ele>265.6</ele>
        <time>2019-06-23T08:59:41Z</time>
      </trkpt>
      <trkpt lat="43.631581" lon="2.321659">
        <ele>267.5</ele>
        <time>2019-06-23T08:59:58Z</time>
      </trkpt>
      <trkpt lat="43.631595" lon="2.321847">
        <ele>269.0</ele>
        <time>2019-06-23T09:00:15Z</time>
      </trkpt>
      <trkpt lat="43.631566" lon="2.322037">
        <ele>270.1</ele>
        <time>2019-06-23T09:00:31Z</time>
      </trkpt>
      <trkpt lat="43.631528" lon="2.322226">
        <ele>271.4</ele>
        <time>2019-06-23T09:00:46Z</time>
      </trkpt>
      <trkpt lat="43.631480" lon="2.322412">
        <ele>273.0</ele>
        <time>2019-06-23T09:01:01Z</time>
      </trkpt>
      <trkpt lat="43.631507" lon="2.322613">
        <ele>273.5</ele>
        <time>2019-06-23T09:01:16Z</time>
      </trkpt>
      <trkpt lat="43.631533" lon="2.322805">
        <ele>274.4</ele>
        <time>2019-06-23T09:01:31Z</time>
      </trkpt>
      <trkpt lat="43.631623" lon="2.322976">
        <ele>275.5</ele>
        <time>2019-06-23T09:01:47Z</time>
      </trkpt>
      <trkpt lat="43.631700" lon="2.323097">
        <ele>273.9</ele>
        <time>2019-06-23T09:02:08Z</time>
      </trkpt>
      <trkpt lat="43.631766" lon="2.323112">
        <ele>273.5</ele>
        <time>2019-06-23T09:02:25Z</time>
      </trkpt>
      <trkpt lat="43.631836" lon="2.323128">
        <ele>273.2</ele>
        <time>2019-06-23T09:03:58Z</time>
      </trkpt>
      <trkpt lat="43.631869" lon="2.323117">
        <ele>273.1</ele>
        <time>2019-06-23T09:04:15Z</time>
      </trkpt>
      <trkpt lat="43.631917" lon="2.323140">
        <ele>275.6</ele>
        <time>2019-06-23T09:04:39Z</time>
      </trkpt>
      <trkpt lat="43.631999" lon="2.323196">
        <ele>280.1</ele>
        <time>2019-06-23T09:04:57Z</time>
      </trkpt>
      <trkpt lat="43.632098" lon="2.323250">
        <ele>284.3</ele>
        <time>2019-06-23T09:05:18Z</time>
      </trkpt>
      <trkpt lat="43.632160" lon="2.323371">
        <ele>291.3</ele>
        <time>2019-06-23T09:06:01Z</time>
      </trkpt>
      <trkpt lat="43.632251" lon="2.323418">
        <ele>293.8</ele>
        <time>2019-06-23T09:06:19Z</time>
      </trkpt>
      <trkpt lat="43.632363" lon="2.323480">
        <ele>296.5</ele>
        <time>2019-06-23T09:06:35Z</time>
      </trkpt>
      <trkpt lat="43.632458" lon="2.323530">
        <ele>300.2</ele>
        <time>2019-06-23T09:06:57Z</time>
      </trkpt>
      <trkpt lat="43.632559" lon="2.323607">
        <ele>303.0</ele>
        <time>2019-06-23T09:07:15Z</time>
      </trkpt>
      <trkpt lat="43.632670" lon="2.323656">
        <ele>305.3</ele>
        <time>2019-06-23T09:07:33Z</time>
      </trkpt>
      <trkpt lat="43.632786" lon="2.323683">
        <ele>306.9</ele>
        <time>2019-06-23T09:07:51Z</time>
      </trkpt>
      <trkpt lat="43.632897" lon="2.323639">
        <ele>308.6</ele>
        <time>2019-06-23T09:08:08Z</time>
      </trkpt>
      <trkpt lat="43.632982" lon="2.323599">
        <ele>310.4</ele>
        <time>2019-06-23T09:08:31Z</time>
      </trkpt>
      <trkpt lat="43.633078" lon="2.323511">
        <ele>313.0</ele>
        <time>2019-06-23T09:08:48Z</time>
      </trkpt>
      <trkpt lat="43.633175" lon="2.323479">
        <ele>317.4</ele>
        <time>2019-06-23T09:11:32Z</time>
      </trkpt>
      <trkpt lat="43.633269" lon="2.323551">
        <ele>319.4</ele>
        <time>2019-06-23T09:11:48Z</time>
      </trkpt>
      <trkpt lat="43.633357" lon="2.323667">
        <ele>321.7</ele>
        <time>2019-06-23T09:12:04Z</time>
      </trkpt>
      <trkpt lat="43.633494" lon="2.323684">
        <ele>324.6</ele>
        <time>2019-06-23T09:12:22Z</time>
      </trkpt>
      <trkpt lat="43.633632" lon="2.323674">
        <ele>327.9</ele>
        <time>2019-06-23T09:12:42Z</time>
      </trkpt>
      <trkpt lat="43.633744" lon="2.323658">
        <ele>331.4</ele>
        <time>2019-06-23T09:13:03Z</time>
      </trkpt>
      <trkpt lat="43.633862" lon="2.323561">
        <ele>334.3</ele>
        <time>2019-06-23T09:13:22Z</time>
      </trkpt>
      <trkpt lat="43.633961" lon="2.323331">
        <ele>337.9</ele>
        <time>2019-06-23T09:14:25Z</time>
      </trkpt>
      <trkpt lat="43.633973" lon="2.323164">
        <ele>339.2</ele>
        <time>2019-06-23T09:14:37Z</time>
      </trkpt>
      <trkpt lat="43.634038" lon="2.323057">
        <ele>340.5</ele>
        <time>2019-06-23T09:14:48Z</time>
      </trkpt>
      <trkpt lat="43.634119" lon="2.323018">
        <ele>342.9</ele>
        <time>2019-06-23T09:15:06Z</time>
      </trkpt>
      <trkpt lat="43.634079" lon="2.323172">
        <ele>345.7</ele>
        <time>2019-06-23T09:15:25Z</time>
      </trkpt>
      <trkpt lat="43.634105" lon="2.323331">
        <ele>347.8</ele>
        <time>2019-06-23T09:15:44Z</time>
      </trkpt>
      <trkpt lat="43.634159" lon="2.323440">
        <ele>349.8</ele>
        <time>2019-06-23T09:16:00Z</time>
      </trkpt>
      <trkpt lat="43.634191" lon="2.323550">
        <ele>351.4</ele>
        <time>2019-06-23T09:16:14Z</time>
      </trkpt>
      <trkpt lat="43.634160" lon="2.323785">
        <ele>353.8</ele>
        <time>2019-06-23T09:16:33Z</time>
      </trkpt>
      <trkpt lat="43.634116" lon="2.323931">
        <ele>356.3</ele>
        <time>2019-06-23T09:16:51Z</time>
      </trkpt>
      <trkpt lat="43.634051" lon="2.324060">
        <ele>358.1</ele>
        <time>2019-06-23T09:17:09Z</time>
      </trkpt>
      <trkpt lat="43.633952" lon="2.324165">
        <ele>359.7</ele>
        <time>2019-06-23T09:17:28Z</time>
      </trkpt>
      <trkpt lat="43.633837" lon="2.324264">
        <ele>362.3</ele>
        <time>2019-06-23T09:17:48Z</time>
      </trkpt>
      <trkpt lat="43.633739" lon="2.324387">
        <ele>364.7</ele>
        <time>2019-06-23T09:18:08Z</time>
      </trkpt>
      <trkpt lat="43.633636" lon="2.324523">
        <ele>366.8</ele>
        <time>2019-06-23T09:18:28Z</time>
      </trkpt>
      <trkpt lat="43.633502" lon="2.324610">
        <ele>369.4</ele>
        <time>2019-06-23T09:18:48Z</time>
      </trkpt>
      <trkpt lat="43.633366" lon="2.324760">
        <ele>371.3</ele>
        <time>2019-06-23T09:19:06Z</time>
      </trkpt>
      <trkpt lat="43.633285" lon="2.324882">
        <ele>372.8</ele>
        <time>2019-06-23T09:19:22Z</time>
      </trkpt>
      <trkpt lat="43.633191" lon="2.325031">
        <ele>374.6</ele>
        <time>2019-06-23T09:19:43Z</time>
      </trkpt>
      <trkpt lat="43.633124" lon="2.325174">
        <ele>377.1</ele>
        <time>2019-06-23T09:20:01Z</time>
      </trkpt>
      <trkpt lat="43.633000" lon="2.325299">
        <ele>378.8</ele>
        <time>2019-06-23T09:20:20Z</time>
      </trkpt>
      <trkpt lat="43.632926" lon="2.325385">
        <ele>379.6</ele>
        <time>2019-06-23T09:20:35Z</time>
      </trkpt>
      <trkpt lat="43.632831" lon="2.325552">
        <ele>381.0</ele>
        <time>2019-06-23T09:20:50Z</time>
      </trkpt>
      <trkpt lat="43.632741" lon="2.325703">
        <ele>383.2</ele>
        <time>2019-06-23T09:21:10Z</time>
      </trkpt>
      <trkpt lat="43.632662" lon="2.325855">
        <ele>385.3</ele>
        <time>2019-06-23T09:21:26Z</time>
      </trkpt>
      <trkpt lat="43.632569" lon="2.325922">
        <ele>386.1</ele>
        <time>2019-06-23T09:21:39Z</time>
      </trkpt>
      <trkpt lat="43.632474" lon="2.325993">
        <ele>388.0</ele>
        <time>2019-06-23T09:21:56Z</time>
      </trkpt>
      <trkpt lat="43.632406" lon="2.326089">
        <ele>388.6</ele>
        <time>2019-06-23T09:22:10Z</time>
      </trkpt>
      <trkpt lat="43.632331" lon="2.326135">
        <ele>388.9</ele>
        <time>2019-06-23T09:22:25Z</time>
      </trkpt>
      <trkpt lat="43.632243" lon="2.326208">
        <ele>390.6</ele>
        <time>2019-06-23T09:22:44Z</time>
      </trkpt>
      <trkpt lat="43.632167" lon="2.326326">
        <ele>392.7</ele>
        <time>2019-06-23T09:23:00Z</time>
      </trkpt>
      <trkpt lat="43.632032" lon="2.326423">
        <ele>395.1</ele>
        <time>2019-06-23T09:23:16Z</time>
      </trkpt>
      <trkpt lat="43.631944" lon="2.326532">
        <ele>397.3</ele>
        <time>2019-06-23T09:23:32Z</time>
      </trkpt>
      <trkpt lat="43.631875" lon="2.326674">
        <ele>398.3</ele>
        <time>2019-06-23T09:23:47Z</time>
      </trkpt>
      <trkpt lat="43.631837" lon="2.326835">
        <ele>400.2</ele>
        <time>2019-06-23T09:24:01Z</time>
      </trkpt>
      <trkpt lat="43.631761" lon="2.326924">
        <ele>401.1</ele>
        <time>2019-06-23T09:24:12Z</time>
      </trkpt>
      <trkpt lat="43.631695" lon="2.327012">
        <ele>401.1</ele>
        <time>2019-06-23T09:24:24Z</time>
      </trkpt>
      <trkpt lat="43.631599" lon="2.327160">
        <ele>401.3</ele>
        <time>2019-06-23T09:24:38Z</time>
      </trkpt>
      <trkpt lat="43.631530" lon="2.327266">
        <ele>401.7</ele>
        <time>2019-06-23T09:24:49Z</time>
      </trkpt>
      <trkpt lat="43.631489" lon="2.327370">
        <ele>402.7</ele>
        <time>2019-06-23T09:25:06Z</time>
      </trkpt>
      <trkpt lat="43.631419" lon="2.327461">
        <ele>402.9</ele>
        <time>2019-06-23T09:25:18Z</time>
      </trkpt>
      <trkpt lat="43.631404" lon="2.327699">
        <ele>403.6</ele>
        <time>2019-06-23T09:25:32Z</time>
      </trkpt>
      <trkpt lat="43.631311" lon="2.327881">
        <ele>405.3</ele>
        <time>2019-06-23T09:25:48Z</time>
      </trkpt>
      <trkpt lat="43.631248" lon="2.327997">
        <ele>405.7</ele>
        <time>2019-06-23T09:26:01Z</time>
      </trkpt>
      <trkpt lat="43.631169" lon="2.328123">
        <ele>404.5</ele>
        <time>2019-06-23T09:26:14Z</time>
      </trkpt>
      <trkpt lat="43.631112" lon="2.328244">
        <ele>403.6</ele>
        <time>2019-06-23T09:26:26Z</time>
      </trkpt>
      <trkpt lat="43.631027" lon="2.328373">
        <ele>403.4</ele>
        <time>2019-06-23T09:26:38Z</time>
      </trkpt>
      <trkpt lat="43.630901" lon="2.328537">
        <ele>403.5</ele>
        <time>2019-06-23T09:26:51Z</time>
      </trkpt>
      <trkpt lat="43.630866" lon="2.328736">
        <ele>403.6</ele>
        <time>2019-06-23T09:27:05Z</time>
      </trkpt>
      <trkpt lat="43.630809" lon="2.328910">
        <ele>404.3</ele>
        <time>2019-06-23T09:27:20Z</time>
      </trkpt>
      <trkpt lat="43.630776" lon="2.329095">
        <ele>405.4</ele>
        <time>2019-06-23T09:27:35Z</time>
      </trkpt>
      <trkpt lat="43.630773" lon="2.329229">
        <ele>406.8</ele>
        <time>2019-06-23T09:27:49Z</time>
      </trkpt>
      <trkpt lat="43.630772" lon="2.329396">
        <ele>408.4</ele>
        <time>2019-06-23T09:28:02Z</time>
      </trkpt>
      <trkpt lat="43.630683" lon="2.329600">
        <ele>408.9</ele>
        <time>2019-06-23T09:28:15Z</time>
      </trkpt>
      <trkpt lat="43.630649" lon="2.329753">
        <ele>408.8</ele>
        <time>2019-06-23T09:28:26Z</time>
      </trkpt>
      <trkpt lat="43.630603" lon="2.329910">
        <ele>409.0</ele>
        <time>2019-06-23T09:28:39Z</time>
      </trkpt>
      <trkpt lat="43.630560" lon="2.330078">
        <ele>409.3</ele>
        <time>2019-06-23T09:28:53Z</time>
      </trkpt>
      <trkpt lat="43.630530" lon="2.330251">
        <ele>409.2</ele>
        <time>2019-06-23T09:29:05Z</time>
      </trkpt>
      <trkpt lat="43.630454" lon="2.330416">
        <ele>409.9</ele>
        <time>2019-06-23T09:29:19Z</time>
      </trkpt>
      <trkpt lat="43.630452" lon="2.330609">
        <ele>411.6</ele>
        <time>2019-06-23T09:29:35Z</time>
      </trkpt>
      <trkpt lat="43.630422" lon="2.330816">
        <ele>412.8</ele>
        <time>2019-06-23T09:29:52Z</time>
      </trkpt>
      <trkpt lat="43.630389" lon="2.331047">
        <ele>413.6</ele>
        <time>2019-06-23T09:30:08Z</time>
      </trkpt>
      <trkpt lat="43.630488" lon="2.331090">
        <ele>414.1</ele>
        <time>2019-06-23T09:30:21Z</time>
      </trkpt>
      <trkpt lat="43.630633" lon="2.331083">
        <ele>415.3</ele>
        <time>2019-06-23T09:30:35Z</time>
      </trkpt>
      <trkpt lat="43.630761" lon="2.331028">
        <ele>417.0</ele>
        <time>2019-06-23T09:30:47Z</time>
      </trkpt>
      <trkpt lat="43.630864" lon="2.330943">
        <ele>419.1</ele>
        <time>2019-06-23T09:31:03Z</time>
      </trkpt>
      <trkpt lat="43.631000" lon="2.330815">
        <ele>420.8</ele>
        <time>2019-06-23T09:31:16Z</time>
      </trkpt>
      <trkpt lat="43.631097" lon="2.330701">
        <ele>422.4</ele>
        <time>2019-06-23T09:31:27Z</time>
      </trkpt>
      <trkpt lat="43.631163" lon="2.330596">
        <ele>424.2</ele>
        <time>2019-06-23T09:31:39Z</time>
      </trkpt>
      <trkpt lat="43.631221" lon="2.330481">
        <ele>426.4</ele>
        <time>2019-06-23T09:31:51Z</time>
      </trkpt>
      <trkpt lat="43.631259" lon="2.330310">
        <ele>428.7</ele>
        <time>2019-06-23T09:32:04Z</time>
      </trkpt>
      <trkpt lat="43.631331" lon="2.330121">
        <ele>430.7</ele>
        <time>2019-06-23T09:32:17Z</time>
      </trkpt>
      <trkpt lat="43.631466" lon="2.330038">
        <ele>432.8</ele>
        <time>2019-06-23T09:32:30Z</time>
      </trkpt>
      <trkpt lat="43.631583" lon="2.330067">
        <ele>434.5</ele>
        <time>2019-06-23T09:32:42Z</time>
      </trkpt>
      <trkpt lat="43.631682" lon="2.330119">
        <ele>436.2</ele>
        <time>2019-06-23T09:32:51Z</time>
      </trkpt>
      <trkpt lat="43.631765" lon="2.330181">
        <ele>437.6</ele>
        <time>2019-06-23T09:33:01Z</time>
      </trkpt>
      <trkpt lat="43.631869" lon="2.330249">
        <ele>438.4</ele>
        <time>2019-06-23T09:33:12Z</time>
      </trkpt>
      <trkpt lat="43.631983" lon="2.330310">
        <ele>440.0</ele>
        <time>2019-06-23T09:33:22Z</time>
      </trkpt>
      <trkpt lat="43.632090" lon="2.330374">
        <ele>442.0</ele>
        <time>2019-06-23T09:33:35Z</time>
      </trkpt>
      <trkpt lat="43.632183" lon="2.330441">
        <ele>443.6</ele>
        <time>2019-06-23T09:33:46Z</time>
      </trkpt>
      <trkpt lat="43.632300" lon="2.330509">
        <ele>444.8</ele>
        <time>2019-06-23T09:33:56Z</time>
      </trkpt>
      <trkpt lat="43.632438" lon="2.330543">
        <ele>446.0</ele>
        <time>2019-06-23T09:34:08Z</time>
      </trkpt>
      <trkpt lat="43.632547" lon="2.330544">
        <ele>446.7</ele>
        <time>2019-06-23T09:34:21Z</time>
      </trkpt>
      <trkpt lat="43.632562" lon="2.330579">
        <ele>446.6</ele>
        <time>2019-06-23T09:35:16Z</time>
      </trkpt>
      <trkpt lat="43.632670" lon="2.330514">
        <ele>446.6</ele>
        <time>2019-06-23T09:35:31Z</time>
      </trkpt>
      <trkpt lat="43.632777" lon="2.330475">
        <ele>446.3</ele>
        <time>2019-06-23T09:35:44Z</time>
      </trkpt>
      <trkpt lat="43.632905" lon="2.330449">
        <ele>445.8</ele>
        <time>2019-06-23T09:35:59Z</time>
      </trkpt>
      <trkpt lat="43.633040" lon="2.330455">
        <ele>445.1</ele>
        <time>2019-06-23T09:36:13Z</time>
      </trkpt>
      <trkpt lat="43.633170" lon="2.330458">
        <ele>444.0</ele>
        <time>2019-06-23T09:36:27Z</time>
      </trkpt>
      <trkpt lat="43.633333" lon="2.330477">
        <ele>443.2</ele>
        <time>2019-06-23T09:36:41Z</time>
      </trkpt>
      <trkpt lat="43.633456" lon="2.330455">
        <ele>442.4</ele>
        <time>2019-06-23T09:36:53Z</time>
      </trkpt>
      <trkpt lat="43.633587" lon="2.330439">
        <ele>441.2</ele>
        <time>2019-06-23T09:37:06Z</time>
      </trkpt>
      <trkpt lat="43.633711" lon="2.330483">
        <ele>440.3</ele>
        <time>2019-06-23T09:37:18Z</time>
      </trkpt>
      <trkpt lat="43.633824" lon="2.330531">
        <ele>439.7</ele>
        <time>2019-06-23T09:37:28Z</time>
      </trkpt>
      <trkpt lat="43.633926" lon="2.330574">
        <ele>438.9</ele>
        <time>2019-06-23T09:37:38Z</time>
      </trkpt>
      <trkpt lat="43.634057" lon="2.330597">
        <ele>437.7</ele>
        <time>2019-06-23T09:37:49Z</time>
      </trkpt>
      <trkpt lat="43.634178" lon="2.330599">
        <ele>436.8</ele>
        <time>2019-06-23T09:37:59Z</time>
      </trkpt>
      <trkpt lat="43.634286" lon="2.330574">
        <ele>435.7</ele>
        <time>2019-06-23T09:38:09Z</time>
      </trkpt>
      <trkpt lat="43.634394" lon="2.330549">
        <ele>434.5</ele>
        <time>2019-06-23T09:38:20Z</time>
      </trkpt>
      <trkpt lat="43.634523" lon="2.330518">
        <ele>433.5</ele>
        <time>2019-06-23T09:38:31Z</time>
      </trkpt>
      <trkpt lat="43.634639" lon="2.330477">
        <ele>432.3</ele>
        <time>2019-06-23T09:38:42Z</time>
      </trkpt>
      <trkpt lat="43.634766" lon="2.330447">
        <ele>431.3</ele>
        <time>2019-06-23T09:38:52Z</time>
      </trkpt>
      <trkpt lat="43.634896" lon="2.330428">
        <ele>430.1</ele>
        <time>2019-06-23T09:39:02Z</time>
      </trkpt>
      <trkpt lat="43.635021" lon="2.330444">
        <ele>428.9</ele>
        <time>2019-06-23T09:39:13Z</time>
      </trkpt>
      <trkpt lat="43.635141" lon="2.330468">
        <ele>427.6</ele>
        <time>2019-06-23T09:39:23Z</time>
      </trkpt>
      <trkpt lat="43.635253" lon="2.330488">
        <ele>426.3</ele>
        <time>2019-06-23T09:39:34Z</time>
      </trkpt>
      <trkpt lat="43.635378" lon="2.330520">
        <ele>425.0</ele>
        <time>2019-06-23T09:39:43Z</time>
      </trkpt>
      <trkpt lat="43.635474" lon="2.330508">
        <ele>423.6</ele>
        <time>2019-06-23T09:39:53Z</time>
      </trkpt>
      <trkpt lat="43.635565" lon="2.330474">
        <ele>422.6</ele>
        <time>2019-06-23T09:40:00Z</time>
      </trkpt>
      <trkpt lat="43.635657" lon="2.330490">
        <ele>420.9</ele>
        <time>2019-06-23T09:40:09Z</time>
      </trkpt>
      <trkpt lat="43.635773" lon="2.330504">
        <ele>419.4</ele>
        <time>2019-06-23T09:40:19Z</time>
      </trkpt>
      <trkpt lat="43.635914" lon="2.330503">
        <ele>417.9</ele>
        <time>2019-06-23T09:40:30Z</time>
      </trkpt>
      <trkpt lat="43.636039" lon="2.330467">
        <ele>416.2</ele>
        <time>2019-06-23T09:40:41Z</time>
      </trkpt>
      <trkpt lat="43.636169" lon="2.330431">
        <ele>414.3</ele>
        <time>2019-06-23T09:40:53Z</time>
      </trkpt>
      <trkpt lat="43.636280" lon="2.330417">
        <ele>413.2</ele>
        <time>2019-06-23T09:41:04Z</time>
      </trkpt>
      <trkpt lat="43.636395" lon="2.330460">
        <ele>412.6</ele>
        <time>2019-06-23T09:41:14Z</time>
      </trkpt>
      <trkpt lat="43.636513" lon="2.330553">
        <ele>412.2</ele>
        <time>2019-06-23T09:41:26Z</time>
      </trkpt>
      <trkpt lat="43.636670" lon="2.330625">
        <ele>412.5</ele>
        <time>2019-06-23T09:41:41Z</time>
      </trkpt>
      <trkpt lat="43.636810" lon="2.330630">
        <ele>413.5</ele>
        <time>2019-06-23T09:41:55Z</time>
      </trkpt>
      <trkpt lat="43.636960" lon="2.330674">
        <ele>414.6</ele>
        <time>2019-06-23T09:42:10Z</time>
      </trkpt>
      <trkpt lat="43.637086" lon="2.330670">
        <ele>415.6</ele>
        <time>2019-06-23T09:42:23Z</time>
      </trkpt>
      <trkpt lat="43.637214" lon="2.330703">
        <ele>417.1</ele>
        <time>2019-06-23T09:42:36Z</time>
      </trkpt>
      <trkpt lat="43.637299" lon="2.330819">
        <ele>417.7</ele>
        <time>2019-06-23T09:42:46Z</time>
      </trkpt>
      <trkpt lat="43.637422" lon="2.330932">
        <ele>418.7</ele>
        <time>2019-06-23T09:42:57Z</time>
      </trkpt>
      <trkpt lat="43.637506" lon="2.331015">
        <ele>419.4</ele>
        <time>2019-06-23T09:43:08Z</time>
      </trkpt>
      <trkpt lat="43.637609" lon="2.331039">
        <ele>420.5</ele>
        <time>2019-06-23T09:43:18Z</time>
      </trkpt>
      <trkpt lat="43.637679" lon="2.331099">
        <ele>421.8</ele>
        <time>2019-06-23T09:43:33Z</time>
      </trkpt>
      <trkpt lat="43.637810" lon="2.331088">
        <ele>423.8</ele>
        <time>2019-06-23T09:43:50Z</time>
      </trkpt>
      <trkpt lat="43.637988" lon="2.331127">
        <ele>424.7</ele>
        <time>2019-06-23T09:44:06Z</time>
      </trkpt>
      <trkpt lat="43.638049" lon="2.331188">
        <ele>425.4</ele>
        <time>2019-06-23T09:44:33Z</time>
      </trkpt>
      <trkpt lat="43.638148" lon="2.331255">
        <ele>425.6</ele>
        <time>2019-06-23T09:44:58Z</time>
      </trkpt>
      <trkpt lat="43.638256" lon="2.331375">
        <ele>423.7</ele>
        <time>2019-06-23T09:45:14Z</time>
      </trkpt>
      <trkpt lat="43.638393" lon="2.331428">
        <ele>421.3</ele>
        <time>2019-06-23T09:45:28Z</time>
      </trkpt>
      <trkpt lat="43.638546" lon="2.331451">
        <ele>418.3</ele>
        <time>2019-06-23T09:45:44Z</time>
      </trkpt>
      <trkpt lat="43.638684" lon="2.331429">
        <ele>415.9</ele>
        <time>2019-06-23T09:46:00Z</time>
      </trkpt>
      <trkpt lat="43.638822" lon="2.331439">
        <ele>413.0</ele>
        <time>2019-06-23T09:46:18Z</time>
      </trkpt>
      <trkpt lat="43.638911" lon="2.331444">
        <ele>411.3</ele>
        <time>2019-06-23T09:46:39Z</time>
      </trkpt>
      <trkpt lat="43.639044" lon="2.331433">
        <ele>408.6</ele>
        <time>2019-06-23T09:47:01Z</time>
      </trkpt>
      <trkpt lat="43.639160" lon="2.331446">
        <ele>406.4</ele>
        <time>2019-06-23T09:47:16Z</time>
      </trkpt>
      <trkpt lat="43.639294" lon="2.331487">
        <ele>404.8</ele>
        <time>2019-06-23T09:47:31Z</time>
      </trkpt>
      <trkpt lat="43.639455" lon="2.331530">
        <ele>403.0</ele>
        <time>2019-06-23T09:47:47Z</time>
      </trkpt>
      <trkpt lat="43.639613" lon="2.331559">
        <ele>401.6</ele>
        <time>2019-06-23T09:48:03Z</time>
      </trkpt>
      <trkpt lat="43.639746" lon="2.331577">
        <ele>399.8</ele>
        <time>2019-06-23T09:48:18Z</time>
      </trkpt>
      <trkpt lat="43.639896" lon="2.331660">
        <ele>398.8</ele>
        <time>2019-06-23T09:48:31Z</time>
      </trkpt>
      <trkpt lat="43.640060" lon="2.331724">
        <ele>396.9</ele>
        <time>2019-06-23T09:48:44Z</time>
      </trkpt>
      <trkpt lat="43.640208" lon="2.331797">
        <ele>394.9</ele>
        <time>2019-06-23T09:48:59Z</time>
      </trkpt>
      <trkpt lat="43.640334" lon="2.331911">
        <ele>392.6</ele>
        <time>2019-06-23T09:49:15Z</time>
      </trkpt>
      <trkpt lat="43.640479" lon="2.331914">
        <ele>390.2</ele>
        <time>2019-06-23T09:49:30Z</time>
      </trkpt>
      <trkpt lat="43.640625" lon="2.331979">
        <ele>386.7</ele>
        <time>2019-06-23T09:49:49Z</time>
      </trkpt>
      <trkpt lat="43.640783" lon="2.332079">
        <ele>383.9</ele>
        <time>2019-06-23T09:50:06Z</time>
      </trkpt>
      <trkpt lat="43.640883" lon="2.332200">
        <ele>381.7</ele>
        <time>2019-06-23T09:50:23Z</time>
      </trkpt>
      <trkpt lat="43.641030" lon="2.332282">
        <ele>379.3</ele>
        <time>2019-06-23T09:50:45Z</time>
      </trkpt>
      <trkpt lat="43.641031" lon="2.332190">
        <ele>377.8</ele>
        <time>2019-06-23T09:51:19Z</time>
      </trkpt>
      <trkpt lat="43.641124" lon="2.332257">
        <ele>378.9</ele>
        <time>2019-06-23T09:51:36Z</time>
      </trkpt>
      <trkpt lat="43.641241" lon="2.332329">
        <ele>377.1</ele>
        <time>2019-06-23T09:51:53Z</time>
      </trkpt>
      <trkpt lat="43.641400" lon="2.332403">
        <ele>376.3</ele>
        <time>2019-06-23T09:52:09Z</time>
      </trkpt>
      <trkpt lat="43.641570" lon="2.332440">
        <ele>374.4</ele>
        <time>2019-06-23T09:52:24Z</time>
      </trkpt>
      <trkpt lat="43.641735" lon="2.332542">
        <ele>372.5</ele>
        <time>2019-06-23T09:52:36Z</time>
      </trkpt>
      <trkpt lat="43.641851" lon="2.332597">
        <ele>370.1</ele>
        <time>2019-06-23T09:52:54Z</time>
      </trkpt>
      <trkpt lat="43.641928" lon="2.332731">
        <ele>368.3</ele>
        <time>2019-06-23T09:53:11Z</time>
      </trkpt>
      <trkpt lat="43.642011" lon="2.332832">
        <ele>365.1</ele>
        <time>2019-06-23T09:53:27Z</time>
      </trkpt>
      <trkpt lat="43.642073" lon="2.332951">
        <ele>362.7</ele>
        <time>2019-06-23T09:53:44Z</time>
      </trkpt>
      <trkpt lat="43.642132" lon="2.333107">
        <ele>362.0</ele>
        <time>2019-06-23T09:53:59Z</time>
      </trkpt>
      <trkpt lat="43.642218" lon="2.333261">
        <ele>360.3</ele>
        <time>2019-06-23T09:54:12Z</time>
      </trkpt>
      <trkpt lat="43.642271" lon="2.333390">
        <ele>357.8</ele>
        <time>2019-06-23T09:54:24Z</time>
      </trkpt>
      <trkpt lat="43.642404" lon="2.333521">
        <ele>354.6</ele>
        <time>2019-06-23T09:54:37Z</time>
      </trkpt>
      <trkpt lat="43.642422" lon="2.333627">
        <ele>351.6</ele>
        <time>2019-06-23T09:54:56Z</time>
      </trkpt>
      <trkpt lat="43.642495" lon="2.333806">
        <ele>350.2</ele>
        <time>2019-06-23T09:55:12Z</time>
      </trkpt>
      <trkpt lat="43.642588" lon="2.333942">
        <ele>348.2</ele>
        <time>2019-06-23T09:55:25Z</time>
      </trkpt>
      <trkpt lat="43.642624" lon="2.334067">
        <ele>346.1</ele>
        <time>2019-06-23T09:55:39Z</time>
      </trkpt>
      <trkpt lat="43.642696" lon="2.334172">
        <ele>344.7</ele>
        <time>2019-06-23T09:56:00Z</time>
      </trkpt>
      <trkpt lat="43.642699" lon="2.334292">
        <ele>343.7</ele>
        <time>2019-06-23T09:56:09Z</time>
      </trkpt>
      <trkpt lat="43.642769" lon="2.334398">
        <ele>342.3</ele>
        <time>2019-06-23T09:56:20Z</time>
      </trkpt>
      <trkpt lat="43.642858" lon="2.334434">
        <ele>341.9</ele>
        <time>2019-06-23T09:56:29Z</time>
      </trkpt>
      <trkpt lat="43.642943" lon="2.334468">
        <ele>341.8</ele>
        <time>2019-06-23T09:56:41Z</time>
      </trkpt>
      <trkpt lat="43.643032" lon="2.334524">
        <ele>341.7</ele>
        <time>2019-06-23T09:56:53Z</time>
      </trkpt>
      <trkpt lat="43.643134" lon="2.334507">
        <ele>342.6</ele>
        <time>2019-06-23T09:57:08Z</time>
      </trkpt>
      <trkpt lat="43.643209" lon="2.334447">
        <ele>343.0</ele>
        <time>2019-06-23T09:57:20Z</time>
      </trkpt>
      <trkpt lat="43.643335" lon="2.334409">
        <ele>343.2</ele>
        <time>2019-06-23T09:57:30Z</time>
      </trkpt>
      <trkpt lat="43.643437" lon="2.334385">
        <ele>342.8</ele>
        <time>2019-06-23T09:57:43Z</time>
      </trkpt>
      <trkpt lat="43.643533" lon="2.334439">
        <ele>342.4</ele>
        <time>2019-06-23T09:57:55Z</time>
      </trkpt>
      <trkpt lat="43.643646" lon="2.334496">
        <ele>342.3</ele>
        <time>2019-06-23T09:58:07Z</time>
      </trkpt>
      <trkpt lat="43.643754" lon="2.334573">
        <ele>342.4</ele>
        <time>2019-06-23T09:58:18Z</time>
      </trkpt>
      <trkpt lat="43.643844" lon="2.334675">
        <ele>343.1</ele>
        <time>2019-06-23T09:58:29Z</time>
      </trkpt>
      <trkpt lat="43.643912" lon="2.334765">
        <ele>343.1</ele>
        <time>2019-06-23T09:58:39Z</time>
      </trkpt>
      <trkpt lat="43.643956" lon="2.334879">
        <ele>342.3</ele>
        <time>2019-06-23T09:58:49Z</time>
      </trkpt>
      <trkpt lat="43.644014" lon="2.334994">
        <ele>341.9</ele>
        <time>2019-06-23T09:59:00Z</time>
      </trkpt>
      <trkpt lat="43.644051" lon="2.335112">
        <ele>342.1</ele>
        <time>2019-06-23T09:59:11Z</time>
      </trkpt>
      <trkpt lat="43.644106" lon="2.335172">
        <ele>342.1</ele>
        <time>2019-06-23T09:59:54Z</time>
      </trkpt>
      <trkpt lat="43.644120" lon="2.335240">
        <ele>342.7</ele>
        <time>2019-06-23T10:02:16Z</time>
      </trkpt>
      <trkpt lat="43.644240" lon="2.335315">
        <ele>341.8</ele>
        <time>2019-06-23T10:02:31Z</time>
      </trkpt>
      <trkpt lat="43.644361" lon="2.335417">
        <ele>341.8</ele>
        <time>2019-06-23T10:02:43Z</time>
      </trkpt>
      <trkpt lat="43.644472" lon="2.335558">
        <ele>343.1</ele>
        <time>2019-06-23T10:02:58Z</time>
      </trkpt>
      <trkpt lat="43.644557" lon="2.335690">
        <ele>343.3</ele>
        <time>2019-06-23T10:03:11Z</time>
      </trkpt>
      <trkpt lat="43.644621" lon="2.335813">
        <ele>342.8</ele>
        <time>2019-06-23T10:03:22Z</time>
      </trkpt>
      <trkpt lat="43.644708" lon="2.335953">
        <ele>342.6</ele>
        <time>2019-06-23T10:03:35Z</time>
      </trkpt>
      <trkpt lat="43.644800" lon="2.336127">
        <ele>341.9</ele>
        <time>2019-06-23T10:03:49Z</time>
      </trkpt>
      <trkpt lat="43.644906" lon="2.336256">
        <ele>340.9</ele>
        <time>2019-06-23T10:04:03Z</time>
      </trkpt>
      <trkpt lat="43.645009" lon="2.336402">
        <ele>340.9</ele>
        <time>2019-06-23T10:04:18Z</time>
      </trkpt>
      <trkpt lat="43.645150" lon="2.336520">
        <ele>341.4</ele>
        <time>2019-06-23T10:04:31Z</time>
      </trkpt>
      <trkpt lat="43.645273" lon="2.336535">
        <ele>342.2</ele>
        <time>2019-06-23T10:04:44Z</time>
      </trkpt>
      <trkpt lat="43.645342" lon="2.336662">
        <ele>343.5</ele>
        <time>2019-06-23T10:04:59Z</time>
      </trkpt>
      <trkpt lat="43.645335" lon="2.336820">
        <ele>346.0</ele>
        <time>2019-06-23T10:05:17Z</time>
      </trkpt>
      <trkpt lat="43.645333" lon="2.336986">
        <ele>349.1</ele>
        <time>2019-06-23T10:05:35Z</time>
      </trkpt>
      <trkpt lat="43.645408" lon="2.337095">
        <ele>352.2</ele>
        <time>2019-06-23T10:05:51Z</time>
      </trkpt>
      <trkpt lat="43.645497" lon="2.337168">
        <ele>355.1</ele>
        <time>2019-06-23T10:06:08Z</time>
      </trkpt>
      <trkpt lat="43.645584" lon="2.337332">
        <ele>357.4</ele>
        <time>2019-06-23T10:06:25Z</time>
      </trkpt>
      <trkpt lat="43.645683" lon="2.337407">
        <ele>359.9</ele>
        <time>2019-06-23T10:06:42Z</time>
      </trkpt>
      <trkpt lat="43.645804" lon="2.337493">
        <ele>361.9</ele>
        <time>2019-06-23T10:06:58Z</time>
      </trkpt>
      <trkpt lat="43.645934" lon="2.337578">
        <ele>364.2</ele>
        <time>2019-06-23T10:07:14Z</time>
      </trkpt>
      <trkpt lat="43.646022" lon="2.337634">
        <ele>365.8</ele>
        <time>2019-06-23T10:07:28Z</time>
      </trkpt>
      <trkpt lat="43.646107" lon="2.337735">
        <ele>368.7</ele>
        <time>2019-06-23T10:07:46Z</time>
      </trkpt>
      <trkpt lat="43.646225" lon="2.337758">
        <ele>370.4</ele>
        <time>2019-06-23T10:08:01Z</time>
      </trkpt>
      <trkpt lat="43.646326" lon="2.337819">
        <ele>372.0</ele>
        <time>2019-06-23T10:08:16Z</time>
      </trkpt>
      <trkpt lat="43.646437" lon="2.337908">
        <ele>374.8</ele>
        <time>2019-06-23T10:08:34Z</time>
      </trkpt>
      <trkpt lat="43.646526" lon="2.337971">
        <ele>377.5</ele>
        <time>2019-06-23T10:08:50Z</time>
      </trkpt>
      <trkpt lat="43.646636" lon="2.338068">
        <ele>380.7</ele>
        <time>2019-06-23T10:09:08Z</time>
      </trkpt>
      <trkpt lat="43.646720" lon="2.338143">
        <ele>383.8</ele>
        <time>2019-06-23T10:09:27Z</time>
      </trkpt>
      <trkpt lat="43.646820" lon="2.338205">
        <ele>386.9</ele>
        <time>2019-06-23T10:09:44Z</time>
      </trkpt>
      <trkpt lat="43.646900" lon="2.338268">
        <ele>389.6</ele>
        <time>2019-06-23T10:10:00Z</time>
      </trkpt>
      <trkpt lat="43.646986" lon="2.338339">
        <ele>392.1</ele>
        <time>2019-06-23T10:10:18Z</time>
      </trkpt>
      <trkpt lat="43.647042" lon="2.338404">
        <ele>394.3</ele>
        <time>2019-06-23T10:10:33Z</time>
      </trkpt>
      <trkpt lat="43.647145" lon="2.338525">
        <ele>396.1</ele>
        <time>2019-06-23T10:10:49Z</time>
      </trkpt>
      <trkpt lat="43.647208" lon="2.338613">
        <ele>398.6</ele>
        <time>2019-06-23T10:11:04Z</time>
      </trkpt>
      <trkpt lat="43.647142" lon="2.338670">
        <ele>401.4</ele>
        <time>2019-06-23T10:11:23Z</time>
      </trkpt>
      <trkpt lat="43.647034" lon="2.338693">
        <ele>403.5</ele>
        <time>2019-06-23T10:11:39Z</time>
      </trkpt>
      <trkpt lat="43.647122" lon="2.338818">
        <ele>406.3</ele>
        <time>2019-06-23T10:11:59Z</time>
      </trkpt>
      <trkpt lat="43.647166" lon="2.338916">
        <ele>408.6</ele>
        <time>2019-06-23T10:12:14Z</time>
      </trkpt>
      <trkpt lat="43.647277" lon="2.338951">
        <ele>411.3</ele>
        <time>2019-06-23T10:12:32Z</time>
      </trkpt>
      <trkpt lat="43.647298" lon="2.339089">
        <ele>414.4</ele>
        <time>2019-06-23T10:12:51Z</time>
      </trkpt>
      <trkpt lat="43.647271" lon="2.339135">
        <ele>417.0</ele>
        <time>2019-06-23T10:13:17Z</time>
      </trkpt>
      <trkpt lat="43.647306" lon="2.339121">
        <ele>417.1</ele>
        <time>2019-06-23T10:13:45Z</time>
      </trkpt>
      <trkpt lat="43.647365" lon="2.339106">
        <ele>418.7</ele>
        <time>2019-06-23T10:14:14Z</time>
      </trkpt>
      <trkpt lat="43.647481" lon="2.339131">
        <ele>419.0</ele>
        <time>2019-06-23T10:14:28Z</time>
      </trkpt>
      <trkpt lat="43.647595" lon="2.339245">
        <ele>421.9</ele>
        <time>2019-06-23T10:14:45Z</time>
      </trkpt>
      <trkpt lat="43.647703" lon="2.339314">
        <ele>425.5</ele>
        <time>2019-06-23T10:15:03Z</time>
      </trkpt>
      <trkpt lat="43.647802" lon="2.339305">
        <ele>427.5</ele>
        <time>2019-06-23T10:15:17Z</time>
      </trkpt>
      <trkpt lat="43.647867" lon="2.339411">
        <ele>430.2</ele>
        <time>2019-06-23T10:15:33Z</time>
      </trkpt>
      <trkpt lat="43.647987" lon="2.339490">
        <ele>432.8</ele>
        <time>2019-06-23T10:15:50Z</time>
      </trkpt>
      <trkpt lat="43.648088" lon="2.339556">
        <ele>434.4</ele>
        <time>2019-06-23T10:16:06Z</time>
      </trkpt>
      <trkpt lat="43.648200" lon="2.339591">
        <ele>435.1</ele>
        <time>2019-06-23T10:16:20Z</time>
      </trkpt>
      <trkpt lat="43.648339" lon="2.339550">
        <ele>434.6</ele>
        <time>2019-06-23T10:16:35Z</time>
      </trkpt>
      <trkpt lat="43.648488" lon="2.339576">
        <ele>434.4</ele>
        <time>2019-06-23T10:16:51Z</time>
      </trkpt>
      <trkpt lat="43.648625" lon="2.339510">
        <ele>432.5</ele>
        <time>2019-06-23T10:17:06Z</time>
      </trkpt>
      <trkpt lat="43.648752" lon="2.339490">
        <ele>433.6</ele>
        <time>2019-06-23T10:17:19Z</time>
      </trkpt>
      <trkpt lat="43.648890" lon="2.339426">
        <ele>436.2</ele>
        <time>2019-06-23T10:17:36Z</time>
      </trkpt>
      <trkpt lat="43.648999" lon="2.339411">
        <ele>438.0</ele>
        <time>2019-06-23T10:17:53Z</time>
      </trkpt>
      <trkpt lat="43.648996" lon="2.339417">
        <ele>438.6</ele>
        <time>2019-06-23T10:18:42Z</time>
      </trkpt>
      <trkpt lat="43.649094" lon="2.339387">
        <ele>439.0</ele>
        <time>2019-06-23T10:19:07Z</time>
      </trkpt>
      <trkpt lat="43.649210" lon="2.339327">
        <ele>439.6</ele>
        <time>2019-06-23T10:19:21Z</time>
      </trkpt>
      <trkpt lat="43.649326" lon="2.339269">
        <ele>440.5</ele>
        <time>2019-06-23T10:19:34Z</time>
      </trkpt>
      <trkpt lat="43.649429" lon="2.339210">
        <ele>441.8</ele>
        <time>2019-06-23T10:19:47Z</time>
      </trkpt>
      <trkpt lat="43.649554" lon="2.339226">
        <ele>443.0</ele>
        <time>2019-06-23T10:20:03Z</time>
      </trkpt>
      <trkpt lat="43.649579" lon="2.339146">
        <ele>443.5</ele>
        <time>2019-06-23T10:20:55Z</time>
      </trkpt>
      <trkpt lat="43.649576" lon="2.339016">
        <ele>441.0</ele>
        <time>2019-06-23T10:21:11Z</time>
      </trkpt>
      <trkpt lat="43.649479" lon="2.338943">
        <ele>436.9</ele>
        <time>2019-06-23T10:23:20Z</time>
      </trkpt>
      <trkpt lat="43.649376" lon="2.338937">
        <ele>433.9</ele>
        <time>2019-06-23T10:23:36Z</time>
      </trkpt>
      <trkpt lat="43.649278" lon="2.338870">
        <ele>429.7</ele>
        <time>2019-06-23T10:23:56Z</time>
      </trkpt>
      <trkpt lat="43.649201" lon="2.338795">
        <ele>425.6</ele>
        <time>2019-06-23T10:24:25Z</time>
      </trkpt>
      <trkpt lat="43.649107" lon="2.338778">
        <ele>422.0</ele>
        <time>2019-06-23T10:24:42Z</time>
      </trkpt>
      <trkpt lat="43.649071" lon="2.338732">
        <ele>418.4</ele>
        <time>2019-06-23T10:26:01Z</time>
      </trkpt>
      <trkpt lat="43.649003" lon="2.338703">
        <ele>415.4</ele>
        <time>2019-06-23T10:26:28Z</time>
      </trkpt>
      <trkpt lat="43.648999" lon="2.338668">
        <ele>412.5</ele>
        <time>2019-06-23T10:26:59Z</time>
      </trkpt>
      <trkpt lat="43.649002" lon="2.338601">
        <ele>411.7</ele>
        <time>2019-06-23T10:28:59Z</time>
      </trkpt>
      <trkpt lat="43.648969" lon="2.338503">
        <ele>407.9</ele>
        <time>2019-06-23T10:29:26Z</time>
      </trkpt>
      <trkpt lat="43.648932" lon="2.338429">
        <ele>404.2</ele>
        <time>2019-06-23T10:29:54Z</time>
      </trkpt>
      <trkpt lat="43.648871" lon="2.338383">
        <ele>399.5</ele>
        <time>2019-06-23T10:31:49Z</time>
      </trkpt>
      <trkpt lat="43.648791" lon="2.338442">
        <ele>397.4</ele>
        <time>2019-06-23T10:32:17Z</time>
      </trkpt>
      <trkpt lat="43.648770" lon="2.338484">
        <ele>397.4</ele>
        <time>2019-06-23T10:32:44Z</time>
      </trkpt>
      <trkpt lat="43.648683" lon="2.338486">
        <ele>395.3</ele>
        <time>2019-06-23T10:33:02Z</time>
      </trkpt>
      <trkpt lat="43.648682" lon="2.338412">
        <ele>392.1</ele>
        <time>2019-06-23T10:33:25Z</time>
      </trkpt>
      <trkpt lat="43.648712" lon="2.338334">
        <ele>390.3</ele>
        <time>2019-06-23T10:33:46Z</time>
      </trkpt>
      <trkpt lat="43.648730" lon="2.338233">
        <ele>386.4</ele>
        <time>2019-06-23T10:34:03Z</time>
      </trkpt>
      <trkpt lat="43.648696" lon="2.338126">
        <ele>380.3</ele>
        <time>2019-06-23T10:35:29Z</time>
      </trkpt>
      <trkpt lat="43.648638" lon="2.338083">
        <ele>376.6</ele>
        <time>2019-06-23T10:35:50Z</time>
      </trkpt>
      <trkpt lat="43.648615" lon="2.337969">
        <ele>374.3</ele>
        <time>2019-06-23T10:36:09Z</time>
      </trkpt>
      <trkpt lat="43.648613" lon="2.337840">
        <ele>363.4</ele>
        <time>2019-06-23T11:58:44Z</time>
      </trkpt>
      <trkpt lat="43.648717" lon="2.337840">
        <ele>365.0</ele>
        <time>2019-06-23T11:59:03Z</time>
      </trkpt>
      <trkpt lat="43.648773" lon="2.337917">
        <ele>365.3</ele>
        <time>2019-06-23T11:59:19Z</time>
      </trkpt>
      <trkpt lat="43.648852" lon="2.337930">
        <ele>369.0</ele>
        <time>2019-06-23T11:59:38Z</time>
      </trkpt>
      <trkpt lat="43.648835" lon="2.337883">
        <ele>368.6</ele>
        <time>2019-06-23T12:00:09Z</time>
      </trkpt>
      <trkpt lat="43.648828" lon="2.337888">
        <ele>368.5</ele>
        <time>2019-06-23T12:01:07Z</time>
      </trkpt>
      <trkpt lat="43.648797" lon="2.337853">
        <ele>368.5</ele>
        <time>2019-06-23T12:02:50Z</time>
      </trkpt>
      <trkpt lat="43.648706" lon="2.337926">
        <ele>368.0</ele>
        <time>2019-06-23T12:03:13Z</time>
      </trkpt>
      <trkpt lat="43.648643" lon="2.337823">
        <ele>366.3</ele>
        <time>2019-06-23T12:03:26Z</time>
      </trkpt>
      <trkpt lat="43.648600" lon="2.337760">
        <ele>365.3</ele>
        <time>2019-06-23T12:07:27Z</time>
      </trkpt>
      <trkpt lat="43.648496" lon="2.337718">
        <ele>363.9</ele>
        <time>2019-06-23T12:07:43Z</time>
      </trkpt>
      <trkpt lat="43.648432" lon="2.337610">
        <ele>359.5</ele>
        <time>2019-06-23T12:08:00Z</time>
      </trkpt>
      <trkpt lat="43.648318" lon="2.337523">
        <ele>356.9</ele>
        <time>2019-06-23T12:08:13Z</time>
      </trkpt>
      <trkpt lat="43.648234" lon="2.337437">
        <ele>354.1</ele>
        <time>2019-06-23T12:08:26Z</time>
      </trkpt>
      <trkpt lat="43.648163" lon="2.337349">
        <ele>351.5</ele>
        <time>2019-06-23T12:08:41Z</time>
      </trkpt>
      <trkpt lat="43.648113" lon="2.337212">
        <ele>348.0</ele>
        <time>2019-06-23T12:08:55Z</time>
      </trkpt>
      <trkpt lat="43.648072" lon="2.337095">
        <ele>344.5</ele>
        <time>2019-06-23T12:09:11Z</time>
      </trkpt>
      <trkpt lat="43.647990" lon="2.336984">
        <ele>342.1</ele>
        <time>2019-06-23T12:09:24Z</time>
      </trkpt>
      <trkpt lat="43.647964" lon="2.336897">
        <ele>339.1</ele>
        <time>2019-06-23T12:09:40Z</time>
      </trkpt>
      <trkpt lat="43.647900" lon="2.336777">
        <ele>336.9</ele>
        <time>2019-06-23T12:09:55Z</time>
      </trkpt>
      <trkpt lat="43.647782" lon="2.336748">
        <ele>334.5</ele>
        <time>2019-06-23T12:10:10Z</time>
      </trkpt>
      <trkpt lat="43.647689" lon="2.336742">
        <ele>333.9</ele>
        <time>2019-06-23T12:10:24Z</time>
      </trkpt>
      <trkpt lat="43.647663" lon="2.336717">
        <ele>331.3</ele>
        <time>2019-06-23T12:12:14Z</time>
      </trkpt>
      <trkpt lat="43.647642" lon="2.336562">
        <ele>328.2</ele>
        <time>2019-06-23T12:12:27Z</time>
      </trkpt>
      <trkpt lat="43.647601" lon="2.336414">
        <ele>324.2</ele>
        <time>2019-06-23T12:12:42Z</time>
      </trkpt>
      <trkpt lat="43.647555" lon="2.336265">
        <ele>321.6</ele>
        <time>2019-06-23T12:12:54Z</time>
      </trkpt>
      <trkpt lat="43.647485" lon="2.336145">
        <ele>319.9</ele>
        <time>2019-06-23T12:13:05Z</time>
      </trkpt>
      <trkpt lat="43.647420" lon="2.336078">
        <ele>317.7</ele>
        <time>2019-06-23T12:13:16Z</time>
      </trkpt>
      <trkpt lat="43.647324" lon="2.336113">
        <ele>317.0</ele>
        <time>2019-06-23T12:13:39Z</time>
      </trkpt>
      <trkpt lat="43.647231" lon="2.336131">
        <ele>316.9</ele>
        <time>2019-06-23T12:13:51Z</time>
      </trkpt>
      <trkpt lat="43.647145" lon="2.336115">
        <ele>316.6</ele>
        <time>2019-06-23T12:14:01Z</time>
      </trkpt>
      <trkpt lat="43.647050" lon="2.336124">
        <ele>316.4</ele>
        <time>2019-06-23T12:14:11Z</time>
      </trkpt>
      <trkpt lat="43.646946" lon="2.336128">
        <ele>316.6</ele>
        <time>2019-06-23T12:14:22Z</time>
      </trkpt>
      <trkpt lat="43.646853" lon="2.336032">
        <ele>316.8</ele>
        <time>2019-06-23T12:14:33Z</time>
      </trkpt>
      <trkpt lat="43.646736" lon="2.335930">
        <ele>316.7</ele>
        <time>2019-06-23T12:14:43Z</time>
      </trkpt>
      <trkpt lat="43.646646" lon="2.335881">
        <ele>316.6</ele>
        <time>2019-06-23T12:14:54Z</time>
      </trkpt>
      <trkpt lat="43.646555" lon="2.335832">
        <ele>316.4</ele>
        <time>2019-06-23T12:15:05Z</time>
      </trkpt>
      <trkpt lat="43.646444" lon="2.335760">
        <ele>316.6</ele>
        <time>2019-06-23T12:15:16Z</time>
      </trkpt>
      <trkpt lat="43.646346" lon="2.335682">
        <ele>316.5</ele>
        <time>2019-06-23T12:15:25Z</time>
      </trkpt>
      <trkpt lat="43.646237" lon="2.335618">
        <ele>316.5</ele>
        <time>2019-06-23T12:15:35Z</time>
      </trkpt>
      <trkpt lat="43.646147" lon="2.335567">
        <ele>316.3</ele>
        <time>2019-06-23T12:15:44Z</time>
      </trkpt>
      <trkpt lat="43.646057" lon="2.335563">
        <ele>316.3</ele>
        <time>2019-06-23T12:15:54Z</time>
      </trkpt>
      <trkpt lat="43.645945" lon="2.335551">
        <ele>316.3</ele>
        <time>2019-06-23T12:16:04Z</time>
      </trkpt>
      <trkpt lat="43.645835" lon="2.335532">
        <ele>316.5</ele>
        <time>2019-06-23T12:16:13Z</time>
      </trkpt>
      <trkpt lat="43.645730" lon="2.335489">
        <ele>316.4</ele>
        <time>2019-06-23T12:16:23Z</time>
      </trkpt>
      <trkpt lat="43.645637" lon="2.335486">
        <ele>316.5</ele>
        <time>2019-06-23T12:16:32Z</time>
      </trkpt>
      <trkpt lat="43.645536" lon="2.335446">
        <ele>316.3</ele>
        <time>2019-06-23T12:16:42Z</time>
      </trkpt>
      <trkpt lat="43.645450" lon="2.335397">
        <ele>316.2</ele>
        <time>2019-06-23T12:16:52Z</time>
      </trkpt>
      <trkpt lat="43.645366" lon="2.335336">
        <ele>316.2</ele>
        <time>2019-06-23T12:17:02Z</time>
      </trkpt>
      <trkpt lat="43.645307" lon="2.335228">
        <ele>316.3</ele>
        <time>2019-06-23T12:17:12Z</time>
      </trkpt>
      <trkpt lat="43.645255" lon="2.335102">
        <ele>315.9</ele>
        <time>2019-06-23T12:17:24Z</time>
      </trkpt>
      <trkpt lat="43.645203" lon="2.334998">
        <ele>315.5</ele>
        <time>2019-06-23T12:17:33Z</time>
      </trkpt>
      <trkpt lat="43.645141" lon="2.334876">
        <ele>315.4</ele>
        <time>2019-06-23T12:17:43Z</time>
      </trkpt>
      <trkpt lat="43.645068" lon="2.334773">
        <ele>315.1</ele>
        <time>2019-06-23T12:17:52Z</time>
      </trkpt>
      <trkpt lat="43.644987" lon="2.334651">
        <ele>315.1</ele>
        <time>2019-06-23T12:18:02Z</time>
      </trkpt>
      <trkpt lat="43.644895" lon="2.334525">
        <ele>315.0</ele>
        <time>2019-06-23T12:18:11Z</time>
      </trkpt>
      <trkpt lat="43.644791" lon="2.334474">
        <ele>315.3</ele>
        <time>2019-06-23T12:18:20Z</time>
      </trkpt>
      <trkpt lat="43.644695" lon="2.334450">
        <ele>315.6</ele>
        <time>2019-06-23T12:18:29Z</time>
      </trkpt>
      <trkpt lat="43.644602" lon="2.334418">
        <ele>316.3</ele>
        <time>2019-06-23T12:18:39Z</time>
      </trkpt>
      <trkpt lat="43.644513" lon="2.334360">
        <ele>317.0</ele>
        <time>2019-06-23T12:18:49Z</time>
      </trkpt>
      <trkpt lat="43.644431" lon="2.334277">
        <ele>317.6</ele>
        <time>2019-06-23T12:18:58Z</time>
      </trkpt>
      <trkpt lat="43.644359" lon="2.334190">
        <ele>318.0</ele>
        <time>2019-06-23T12:19:06Z</time>
      </trkpt>
      <trkpt lat="43.644287" lon="2.334101">
        <ele>318.4</ele>
        <time>2019-06-23T12:19:14Z</time>
      </trkpt>
      <trkpt lat="43.644206" lon="2.334061">
        <ele>318.9</ele>
        <time>2019-06-23T12:19:23Z</time>
      </trkpt>
      <trkpt lat="43.644118" lon="2.334058">
        <ele>319.5</ele>
        <time>2019-06-23T12:19:32Z</time>
      </trkpt>
      <trkpt lat="43.644034" lon="2.334052">
        <ele>320.4</ele>
        <time>2019-06-23T12:19:40Z</time>
      </trkpt>
      <trkpt lat="43.643958" lon="2.334018">
        <ele>321.0</ele>
        <time>2019-06-23T12:19:49Z</time>
      </trkpt>
      <trkpt lat="43.643877" lon="2.333933">
        <ele>322.3</ele>
        <time>2019-06-23T12:19:59Z</time>
      </trkpt>
      <trkpt lat="43.643814" lon="2.333847">
        <ele>322.9</ele>
        <time>2019-06-23T12:20:08Z</time>
      </trkpt>
      <trkpt lat="43.643743" lon="2.333735">
        <ele>323.7</ele>
        <time>2019-06-23T12:20:17Z</time>
      </trkpt>
      <trkpt lat="43.643658" lon="2.333684">
        <ele>324.3</ele>
        <time>2019-06-23T12:20:26Z</time>
      </trkpt>
      <trkpt lat="43.643560" lon="2.333660">
        <ele>325.1</ele>
        <time>2019-06-23T12:20:35Z</time>
      </trkpt>
      <trkpt lat="43.643466" lon="2.333656">
        <ele>326.0</ele>
        <time>2019-06-23T12:20:44Z</time>
      </trkpt>
      <trkpt lat="43.643362" lon="2.333687">
        <ele>327.4</ele>
        <time>2019-06-23T12:20:54Z</time>
      </trkpt>
      <trkpt lat="43.643276" lon="2.333735">
        <ele>328.9</ele>
        <time>2019-06-23T12:21:04Z</time>
      </trkpt>
      <trkpt lat="43.643172" lon="2.333752">
        <ele>330.0</ele>
        <time>2019-06-23T12:21:14Z</time>
      </trkpt>
      <trkpt lat="43.643074" lon="2.333751">
        <ele>331.1</ele>
        <time>2019-06-23T12:21:24Z</time>
      </trkpt>
      <trkpt lat="43.642997" lon="2.333671">
        <ele>332.5</ele>
        <time>2019-06-23T12:21:33Z</time>
      </trkpt>
      <trkpt lat="43.642920" lon="2.333571">
        <ele>333.6</ele>
        <time>2019-06-23T12:21:41Z</time>
      </trkpt>
      <trkpt lat="43.642850" lon="2.333505">
        <ele>334.9</ele>
        <time>2019-06-23T12:21:50Z</time>
      </trkpt>
      <trkpt lat="43.642790" lon="2.333397">
        <ele>335.9</ele>
        <time>2019-06-23T12:21:59Z</time>
      </trkpt>
      <trkpt lat="43.642741" lon="2.333290">
        <ele>337.3</ele>
        <time>2019-06-23T12:22:11Z</time>
      </trkpt>
      <trkpt lat="43.642713" lon="2.333164">
        <ele>337.4</ele>
        <time>2019-06-23T12:22:22Z</time>
      </trkpt>
      <trkpt lat="43.642704" lon="2.333030">
        <ele>337.1</ele>
        <time>2019-06-23T12:22:31Z</time>
      </trkpt>
      <trkpt lat="43.642715" lon="2.332882">
        <ele>337.0</ele>
        <time>2019-06-23T12:22:42Z</time>
      </trkpt>
      <trkpt lat="43.642705" lon="2.332711">
        <ele>336.9</ele>
        <time>2019-06-23T12:22:52Z</time>
      </trkpt>
      <trkpt lat="43.642677" lon="2.332581">
        <ele>336.9</ele>
        <time>2019-06-23T12:23:00Z</time>
      </trkpt>
      <trkpt lat="43.642659" lon="2.332451">
        <ele>336.7</ele>
        <time>2019-06-23T12:23:08Z</time>
      </trkpt>
      <trkpt lat="43.642629" lon="2.332326">
        <ele>336.4</ele>
        <time>2019-06-23T12:23:16Z</time>
      </trkpt>
      <trkpt lat="43.642581" lon="2.332209">
        <ele>336.4</ele>
        <time>2019-06-23T12:23:24Z</time>
      </trkpt>
      <trkpt lat="43.642535" lon="2.332118">
        <ele>337.0</ele>
        <time>2019-06-23T12:23:34Z</time>
      </trkpt>
      <trkpt lat="43.642422" lon="2.332059">
        <ele>337.9</ele>
        <time>2019-06-23T12:23:44Z</time>
      </trkpt>
      <trkpt lat="43.642350" lon="2.331986">
        <ele>339.5</ele>
        <time>2019-06-23T12:23:56Z</time>
      </trkpt>
      <trkpt lat="43.642344" lon="2.331850">
        <ele>340.4</ele>
        <time>2019-06-23T12:24:06Z</time>
      </trkpt>
      <trkpt lat="43.642334" lon="2.331722">
        <ele>339.6</ele>
        <time>2019-06-23T12:24:18Z</time>
      </trkpt>
      <trkpt lat="43.642317" lon="2.331637">
        <ele>339.7</ele>
        <time>2019-06-23T12:24:33Z</time>
      </trkpt>
      <trkpt lat="43.642299" lon="2.331524">
        <ele>338.6</ele>
        <time>2019-06-23T12:24:44Z</time>
      </trkpt>
      <trkpt lat="43.642235" lon="2.331392">
        <ele>337.3</ele>
        <time>2019-06-23T12:24:55Z</time>
      </trkpt>
      <trkpt lat="43.642110" lon="2.331283">
        <ele>336.4</ele>
        <time>2019-06-23T12:25:05Z</time>
      </trkpt>
      <trkpt lat="43.642034" lon="2.331220">
        <ele>335.5</ele>
        <time>2019-06-23T12:25:16Z</time>
      </trkpt>
      <trkpt lat="43.641939" lon="2.331145">
        <ele>334.3</ele>
        <time>2019-06-23T12:25:27Z</time>
      </trkpt>
      <trkpt lat="43.641922" lon="2.330988">
        <ele>333.3</ele>
        <time>2019-06-23T12:25:37Z</time>
      </trkpt>
      <trkpt lat="43.641858" lon="2.330869">
        <ele>331.6</ele>
        <time>2019-06-23T12:25:50Z</time>
      </trkpt>
      <trkpt lat="43.641786" lon="2.330778">
        <ele>331.1</ele>
        <time>2019-06-23T12:26:00Z</time>
      </trkpt>
      <trkpt lat="43.641720" lon="2.330642">
        <ele>331.0</ele>
        <time>2019-06-23T12:26:10Z</time>
      </trkpt>
      <trkpt lat="43.641653" lon="2.330517">
        <ele>330.8</ele>
        <time>2019-06-23T12:26:21Z</time>
      </trkpt>
      <trkpt lat="43.641607" lon="2.330389">
        <ele>330.8</ele>
        <time>2019-06-23T12:26:33Z</time>
      </trkpt>
      <trkpt lat="43.641556" lon="2.330238">
        <ele>331.1</ele>
        <time>2019-06-23T12:26:47Z</time>
      </trkpt>
      <trkpt lat="43.641435" lon="2.330088">
        <ele>330.4</ele>
        <time>2019-06-23T12:27:00Z</time>
      </trkpt>
      <trkpt lat="43.641355" lon="2.330003">
        <ele>329.4</ele>
        <time>2019-06-23T12:27:09Z</time>
      </trkpt>
      <trkpt lat="43.641254" lon="2.329897">
        <ele>328.8</ele>
        <time>2019-06-23T12:27:21Z</time>
      </trkpt>
      <trkpt lat="43.641161" lon="2.329794">
        <ele>328.4</ele>
        <time>2019-06-23T12:27:33Z</time>
      </trkpt>
      <trkpt lat="43.641052" lon="2.329680">
        <ele>328.5</ele>
        <time>2019-06-23T12:27:45Z</time>
      </trkpt>
      <trkpt lat="43.640986" lon="2.329560">
        <ele>328.9</ele>
        <time>2019-06-23T12:27:58Z</time>
      </trkpt>
      <trkpt lat="43.640990" lon="2.329414">
        <ele>329.3</ele>
        <time>2019-06-23T12:28:08Z</time>
      </trkpt>
      <trkpt lat="43.641016" lon="2.329263">
        <ele>329.6</ele>
        <time>2019-06-23T12:28:19Z</time>
      </trkpt>
      <trkpt lat="43.641016" lon="2.329106">
        <ele>330.4</ele>
        <time>2019-06-23T12:28:32Z</time>
      </trkpt>
      <trkpt lat="43.640878" lon="2.329006">
        <ele>331.4</ele>
        <time>2019-06-23T12:28:47Z</time>
      </trkpt>
      <trkpt lat="43.640758" lon="2.329008">
        <ele>332.7</ele>
        <time>2019-06-23T12:29:03Z</time>
      </trkpt>
      <trkpt lat="43.640597" lon="2.328957">
        <ele>333.3</ele>
        <time>2019-06-23T12:29:14Z</time>
      </trkpt>
      <trkpt lat="43.640506" lon="2.328894">
        <ele>333.6</ele>
        <time>2019-06-23T12:29:24Z</time>
      </trkpt>
      <trkpt lat="43.640446" lon="2.328770">
        <ele>334.3</ele>
        <time>2019-06-23T12:29:37Z</time>
      </trkpt>
      <trkpt lat="43.640377" lon="2.328602">
        <ele>335.5</ele>
        <time>2019-06-23T12:29:52Z</time>
      </trkpt>
      <trkpt lat="43.640359" lon="2.328443">
        <ele>336.4</ele>
        <time>2019-06-23T12:30:03Z</time>
      </trkpt>
      <trkpt lat="43.640341" lon="2.328311">
        <ele>336.6</ele>
        <time>2019-06-23T12:30:16Z</time>
      </trkpt>
      <trkpt lat="43.640299" lon="2.328178">
        <ele>337.2</ele>
        <time>2019-06-23T12:30:30Z</time>
      </trkpt>
      <trkpt lat="43.640218" lon="2.328047">
        <ele>336.8</ele>
        <time>2019-06-23T12:30:43Z</time>
      </trkpt>
      <trkpt lat="43.640098" lon="2.327945">
        <ele>336.6</ele>
        <time>2019-06-23T12:30:56Z</time>
      </trkpt>
      <trkpt lat="43.639973" lon="2.327925">
        <ele>336.3</ele>
        <time>2019-06-23T12:31:08Z</time>
      </trkpt>
      <trkpt lat="43.639856" lon="2.327891">
        <ele>336.2</ele>
        <time>2019-06-23T12:31:18Z</time>
      </trkpt>
      <trkpt lat="43.639747" lon="2.327921">
        <ele>336.1</ele>
        <time>2019-06-23T12:31:31Z</time>
      </trkpt>
      <trkpt lat="43.639631" lon="2.328008">
        <ele>336.0</ele>
        <time>2019-06-23T12:31:44Z</time>
      </trkpt>
      <trkpt lat="43.639506" lon="2.328122">
        <ele>336.6</ele>
        <time>2019-06-23T12:31:59Z</time>
      </trkpt>
      <trkpt lat="43.639369" lon="2.328128">
        <ele>337.4</ele>
        <time>2019-06-23T12:32:12Z</time>
      </trkpt>
      <trkpt lat="43.639224" lon="2.328022">
        <ele>336.9</ele>
        <time>2019-06-23T12:32:26Z</time>
      </trkpt>
      <trkpt lat="43.639088" lon="2.328029">
        <ele>336.2</ele>
        <time>2019-06-23T12:32:39Z</time>
      </trkpt>
      <trkpt lat="43.638962" lon="2.328039">
        <ele>335.5</ele>
        <time>2019-06-23T12:32:54Z</time>
      </trkpt>
      <trkpt lat="43.638806" lon="2.328025">
        <ele>334.7</ele>
        <time>2019-06-23T12:33:07Z</time>
      </trkpt>
      <trkpt lat="43.638694" lon="2.327992">
        <ele>334.4</ele>
        <time>2019-06-23T12:33:20Z</time>
      </trkpt>
      <trkpt lat="43.638547" lon="2.327970">
        <ele>333.8</ele>
        <time>2019-06-23T12:33:36Z</time>
      </trkpt>
      <trkpt lat="43.638391" lon="2.327916">
        <ele>334.1</ele>
        <time>2019-06-23T12:33:50Z</time>
      </trkpt>
      <trkpt lat="43.638252" lon="2.327872">
        <ele>335.1</ele>
        <time>2019-06-23T12:34:03Z</time>
      </trkpt>
      <trkpt lat="43.638177" lon="2.327700">
        <ele>335.8</ele>
        <time>2019-06-23T12:34:20Z</time>
      </trkpt>
      <trkpt lat="43.638093" lon="2.327574">
        <ele>335.9</ele>
        <time>2019-06-23T12:34:35Z</time>
      </trkpt>
      <trkpt lat="43.638034" lon="2.327366">
        <ele>334.6</ele>
        <time>2019-06-23T12:34:49Z</time>
      </trkpt>
      <trkpt lat="43.638026" lon="2.327291">
        <ele>334.1</ele>
        <time>2019-06-23T12:36:09Z</time>
      </trkpt>
      <trkpt lat="43.638030" lon="2.327095">
        <ele>333.9</ele>
        <time>2019-06-23T12:36:46Z</time>
      </trkpt>
      <trkpt lat="43.637994" lon="2.326911">
        <ele>333.5</ele>
        <time>2019-06-23T12:36:56Z</time>
      </trkpt>
      <trkpt lat="43.637962" lon="2.326744">
        <ele>333.5</ele>
        <time>2019-06-23T12:37:07Z</time>
      </trkpt>
      <trkpt lat="43.637917" lon="2.326552">
        <ele>333.3</ele>
        <time>2019-06-23T12:37:20Z</time>
      </trkpt>
      <trkpt lat="43.637896" lon="2.326381">
        <ele>332.7</ele>
        <time>2019-06-23T12:37:32Z</time>
      </trkpt>
      <trkpt lat="43.637955" lon="2.326237">
        <ele>332.4</ele>
        <time>2019-06-23T12:37:43Z</time>
      </trkpt>
      <trkpt lat="43.638062" lon="2.326115">
        <ele>332.1</ele>
        <time>2019-06-23T12:37:55Z</time>
      </trkpt>
      <trkpt lat="43.638153" lon="2.326009">
        <ele>332.2</ele>
        <time>2019-06-23T12:38:08Z</time>
      </trkpt>
      <trkpt lat="43.638199" lon="2.325855">
        <ele>333.2</ele>
        <time>2019-06-23T12:38:24Z</time>
      </trkpt>
      <trkpt lat="43.638285" lon="2.325707">
        <ele>333.8</ele>
        <time>2019-06-23T12:38:37Z</time>
      </trkpt>
      <trkpt lat="43.638367" lon="2.325588">
        <ele>334.2</ele>
        <time>2019-06-23T12:38:49Z</time>
      </trkpt>
      <trkpt lat="43.638469" lon="2.325506">
        <ele>333.3</ele>
        <time>2019-06-23T12:39:03Z</time>
      </trkpt>
      <trkpt lat="43.638626" lon="2.325432">
        <ele>331.2</ele>
        <time>2019-06-23T12:39:19Z</time>
      </trkpt>
      <trkpt lat="43.638737" lon="2.325374">
        <ele>329.9</ele>
        <time>2019-06-23T12:39:31Z</time>
      </trkpt>
      <trkpt lat="43.638855" lon="2.325300">
        <ele>328.8</ele>
        <time>2019-06-23T12:39:44Z</time>
      </trkpt>
      <trkpt lat="43.638969" lon="2.325249">
        <ele>328.2</ele>
        <time>2019-06-23T12:39:54Z</time>
      </trkpt>
      <trkpt lat="43.639053" lon="2.325198">
        <ele>328.1</ele>
        <time>2019-06-23T12:40:05Z</time>
      </trkpt>
      <trkpt lat="43.639174" lon="2.325129">
        <ele>327.8</ele>
        <time>2019-06-23T12:40:21Z</time>
      </trkpt>
      <trkpt lat="43.639321" lon="2.325049">
        <ele>327.5</ele>
        <time>2019-06-23T12:40:35Z</time>
      </trkpt>
      <trkpt lat="43.639468" lon="2.324978">
        <ele>327.8</ele>
        <time>2019-06-23T12:40:46Z</time>
      </trkpt>
      <trkpt lat="43.639589" lon="2.324921">
        <ele>328.3</ele>
        <time>2019-06-23T12:41:00Z</time>
      </trkpt>
      <trkpt lat="43.639709" lon="2.324886">
        <ele>328.2</ele>
        <time>2019-06-23T12:41:13Z</time>
      </trkpt>
      <trkpt lat="43.639800" lon="2.324821">
        <ele>326.9</ele>
        <time>2019-06-23T12:41:25Z</time>
      </trkpt>
      <trkpt lat="43.639899" lon="2.324728">
        <ele>325.9</ele>
        <time>2019-06-23T12:41:36Z</time>
      </trkpt>
      <trkpt lat="43.639962" lon="2.324656">
        <ele>324.2</ele>
        <time>2019-06-23T12:41:48Z</time>
      </trkpt>
      <trkpt lat="43.640030" lon="2.324501">
        <ele>322.3</ele>
        <time>2019-06-23T12:42:03Z</time>
      </trkpt>
      <trkpt lat="43.640059" lon="2.324342">
        <ele>320.8</ele>
        <time>2019-06-23T12:42:18Z</time>
      </trkpt>
      <trkpt lat="43.640095" lon="2.324177">
        <ele>319.2</ele>
        <time>2019-06-23T12:42:30Z</time>
      </trkpt>
      <trkpt lat="43.640119" lon="2.324049">
        <ele>316.6</ele>
        <time>2019-06-23T12:42:45Z</time>
      </trkpt>
      <trkpt lat="43.640121" lon="2.323895">
        <ele>314.7</ele>
        <time>2019-06-23T12:43:01Z</time>
      </trkpt>
      <trkpt lat="43.640116" lon="2.323725">
        <ele>312.2</ele>
        <time>2019-06-23T12:43:15Z</time>
      </trkpt>
      <trkpt lat="43.640131" lon="2.323589">
        <ele>309.7</ele>
        <time>2019-06-23T12:43:29Z</time>
      </trkpt>
      <trkpt lat="43.640151" lon="2.323446">
        <ele>307.9</ele>
        <time>2019-06-23T12:43:41Z</time>
      </trkpt>
      <trkpt lat="43.640120" lon="2.323297">
        <ele>307.3</ele>
        <time>2019-06-23T12:43:55Z</time>
      </trkpt>
      <trkpt lat="43.640056" lon="2.323147">
        <ele>307.2</ele>
        <time>2019-06-23T12:44:09Z</time>
      </trkpt>
      <trkpt lat="43.640014" lon="2.322980">
        <ele>306.7</ele>
        <time>2019-06-23T12:44:24Z</time>
      </trkpt>
      <trkpt lat="43.639954" lon="2.322903">
        <ele>304.5</ele>
        <time>2019-06-23T12:46:24Z</time>
      </trkpt>
      <trkpt lat="43.639859" lon="2.322804">
        <ele>302.0</ele>
        <time>2019-06-23T12:46:39Z</time>
      </trkpt>
      <trkpt lat="43.639743" lon="2.322613">
        <ele>299.7</ele>
        <time>2019-06-23T12:47:00Z</time>
      </trkpt>
      <trkpt lat="43.639652" lon="2.322475">
        <ele>296.6</ele>
        <time>2019-06-23T12:47:20Z</time>
      </trkpt>
      <trkpt lat="43.639534" lon="2.322331">
        <ele>294.6</ele>
        <time>2019-06-23T12:47:33Z</time>
      </trkpt>
      <trkpt lat="43.639445" lon="2.322229">
        <ele>292.1</ele>
        <time>2019-06-23T12:47:47Z</time>
      </trkpt>
      <trkpt lat="43.639372" lon="2.322110">
        <ele>289.8</ele>
        <time>2019-06-23T12:48:01Z</time>
      </trkpt>
      <trkpt lat="43.639269" lon="2.321973">
        <ele>287.0</ele>
        <time>2019-06-23T12:48:17Z</time>
      </trkpt>
      <trkpt lat="43.639201" lon="2.321802">
        <ele>284.0</ele>
        <time>2019-06-23T12:48:34Z</time>
      </trkpt>
      <trkpt lat="43.639150" lon="2.321616">
        <ele>280.7</ele>
        <time>2019-06-23T12:48:49Z</time>
      </trkpt>
      <trkpt lat="43.639108" lon="2.321457">
        <ele>277.4</ele>
        <time>2019-06-23T12:49:04Z</time>
      </trkpt>
      <trkpt lat="43.639032" lon="2.321419">
        <ele>275.6</ele>
        <time>2019-06-23T12:50:06Z</time>
      </trkpt>
      <trkpt lat="43.638988" lon="2.321435">
        <ele>275.8</ele>
        <time>2019-06-23T12:50:43Z</time>
      </trkpt>
      <trkpt lat="43.638902" lon="2.321339">
        <ele>274.6</ele>
        <time>2019-06-23T12:51:16Z</time>
      </trkpt>
      <trkpt lat="43.638741" lon="2.321281">
        <ele>273.0</ele>
        <time>2019-06-23T12:51:29Z</time>
      </trkpt>
      <trkpt lat="43.638635" lon="2.321265">
        <ele>271.6</ele>
        <time>2019-06-23T12:51:43Z</time>
      </trkpt>
      <trkpt lat="43.638527" lon="2.321207">
        <ele>270.9</ele>
        <time>2019-06-23T12:51:55Z</time>
      </trkpt>
      <trkpt lat="43.638387" lon="2.321121">
        <ele>269.5</ele>
        <time>2019-06-23T12:52:09Z</time>
      </trkpt>
      <trkpt lat="43.638271" lon="2.321029">
        <ele>268.5</ele>
        <time>2019-06-23T12:52:22Z</time>
      </trkpt>
      <trkpt lat="43.638136" lon="2.321043">
        <ele>267.9</ele>
        <time>2019-06-23T12:52:36Z</time>
      </trkpt>
      <trkpt lat="43.638028" lon="2.321153">
        <ele>267.0</ele>
        <time>2019-06-23T12:52:49Z</time>
      </trkpt>
      <trkpt lat="43.637921" lon="2.321252">
        <ele>266.5</ele>
        <time>2019-06-23T12:53:00Z</time>
      </trkpt>
      <trkpt lat="43.637801" lon="2.321271">
        <ele>265.5</ele>
        <time>2019-06-23T12:53:12Z</time>
      </trkpt>
      <trkpt lat="43.637681" lon="2.321241">
        <ele>264.0</ele>
        <time>2019-06-23T12:53:27Z</time>
      </trkpt>
      <trkpt lat="43.637593" lon="2.321160">
        <ele>263.4</ele>
        <time>2019-06-23T12:53:41Z</time>
      </trkpt>
      <trkpt lat="43.637583" lon="2.321050">
        <ele>263.3</ele>
        <time>2019-06-23T12:53:54Z</time>
      </trkpt>
      <trkpt lat="43.637494" lon="2.321034">
        <ele>263.8</ele>
        <time>2019-06-23T12:54:37Z</time>
      </trkpt>
      <trkpt lat="43.637460" lon="2.320989">
        <ele>263.5</ele>
        <time>2019-06-23T12:54:56Z</time>
      </trkpt>
      <trkpt lat="43.637346" lon="2.320935">
        <ele>262.5</ele>
        <time>2019-06-23T12:55:12Z</time>
      </trkpt>
      <trkpt lat="43.637258" lon="2.320883">
        <ele>260.7</ele>
        <time>2019-06-23T12:55:23Z</time>
      </trkpt>
      <trkpt lat="43.637136" lon="2.320801">
        <ele>258.7</ele>
        <time>2019-06-23T12:55:34Z</time>
      </trkpt>
      <trkpt lat="43.637015" lon="2.320703">
        <ele>256.0</ele>
        <time>2019-06-23T12:55:48Z</time>
      </trkpt>
      <trkpt lat="43.636878" lon="2.320671">
        <ele>254.2</ele>
        <time>2019-06-23T12:55:59Z</time>
      </trkpt>
      <trkpt lat="43.636831" lon="2.320627">
        <ele>253.4</ele>
        <time>2019-06-23T12:56:24Z</time>
      </trkpt>
      <trkpt lat="43.636749" lon="2.320606">
        <ele>252.1</ele>
        <time>2019-06-23T12:56:50Z</time>
      </trkpt>
      <trkpt lat="43.636656" lon="2.320509">
        <ele>251.9</ele>
        <time>2019-06-23T12:57:07Z</time>
      </trkpt>
      <trkpt lat="43.636578" lon="2.320463">
        <ele>251.5</ele>
        <time>2019-06-23T12:57:28Z</time>
      </trkpt>
      <trkpt lat="43.636447" lon="2.320378">
        <ele>251.1</ele>
        <time>2019-06-23T12:57:43Z</time>
      </trkpt>
      <trkpt lat="43.636351" lon="2.320303">
        <ele>249.9</ele>
        <time>2019-06-23T12:57:56Z</time>
      </trkpt>
      <trkpt lat="43.636254" lon="2.320181">
        <ele>247.6</ele>
        <time>2019-06-23T12:58:09Z</time>
      </trkpt>
      <trkpt lat="43.636161" lon="2.320118">
        <ele>245.1</ele>
        <time>2019-06-23T12:58:23Z</time>
      </trkpt>
      <trkpt lat="43.636068" lon="2.320041">
        <ele>242.3</ele>
        <time>2019-06-23T12:58:38Z</time>
      </trkpt>
      <trkpt lat="43.635960" lon="2.319929">
        <ele>240.1</ele>
        <time>2019-06-23T12:58:52Z</time>
      </trkpt>
      <trkpt lat="43.635866" lon="2.319827">
        <ele>238.2</ele>
        <time>2019-06-23T12:59:06Z</time>
      </trkpt>
      <trkpt lat="43.635786" lon="2.319715">
        <ele>236.0</ele>
        <time>2019-06-23T12:59:20Z</time>
      </trkpt>
      <trkpt lat="43.635719" lon="2.319584">
        <ele>233.4</ele>
        <time>2019-06-23T12:59:33Z</time>
      </trkpt>
      <trkpt lat="43.635653" lon="2.319482">
        <ele>230.0</ele>
        <time>2019-06-23T12:59:47Z</time>
      </trkpt>
      <trkpt lat="43.635582" lon="2.319378">
        <ele>227.8</ele>
        <time>2019-06-23T13:00:13Z</time>
      </trkpt>
      <trkpt lat="43.635650" lon="2.319379">
        <ele>226.1</ele>
        <time>2019-06-23T13:00:25Z</time>
      </trkpt>
      <trkpt lat="43.635748" lon="2.319432">
        <ele>224.2</ele>
        <time>2019-06-23T13:00:37Z</time>
      </trkpt>
      <trkpt lat="43.635695" lon="2.319296">
        <ele>222.4</ele>
        <time>2019-06-23T13:00:51Z</time>
      </trkpt>
      <trkpt lat="43.635633" lon="2.319321">
        <ele>220.9</ele>
        <time>2019-06-23T13:02:07Z</time>
      </trkpt>
      <trkpt lat="43.635537" lon="2.319273">
        <ele>222.3</ele>
        <time>2019-06-23T13:02:18Z</time>
      </trkpt>
      <trkpt lat="43.635445" lon="2.319252">
        <ele>222.5</ele>
        <time>2019-06-23T13:02:28Z</time>
      </trkpt>
      <trkpt lat="43.635362" lon="2.319162">
        <ele>222.9</ele>
        <time>2019-06-23T13:02:38Z</time>
      </trkpt>
      <trkpt lat="43.635377" lon="2.319002">
        <ele>223.5</ele>
        <time>2019-06-23T13:02:50Z</time>
      </trkpt>
      <trkpt lat="43.635424" lon="2.318875">
        <ele>223.6</ele>
        <time>2019-06-23T13:03:02Z</time>
      </trkpt>
      <trkpt lat="43.635474" lon="2.318746">
        <ele>223.9</ele>
        <time>2019-06-23T13:03:14Z</time>
      </trkpt>
      <trkpt lat="43.635522" lon="2.318615">
        <ele>224.1</ele>
        <time>2019-06-23T13:03:25Z</time>
      </trkpt>
      <trkpt lat="43.635564" lon="2.318492">
        <ele>223.7</ele>
        <time>2019-06-23T13:03:36Z</time>
      </trkpt>
      <trkpt lat="43.635600" lon="2.318385">
        <ele>223.1</ele>
        <time>2019-06-23T13:03:46Z</time>
      </trkpt>
      <trkpt lat="43.635699" lon="2.318464">
        <ele>222.2</ele>
        <time>2019-06-23T13:03:57Z</time>
      </trkpt>
      <trkpt lat="43.635759" lon="2.318567">
        <ele>220.7</ele>
        <time>2019-06-23T13:04:09Z</time>
      </trkpt>
      <trkpt lat="43.635859" lon="2.318612">
        <ele>219.5</ele>
        <time>2019-06-23T13:04:24Z</time>
      </trkpt>
      <trkpt lat="43.635946" lon="2.318714">
        <ele>219.4</ele>
        <time>2019-06-23T13:04:36Z</time>
      </trkpt>
      <trkpt lat="43.636012" lon="2.318811">
        <ele>219.1</ele>
        <time>2019-06-23T13:04:50Z</time>
      </trkpt>
      <trkpt lat="43.636106" lon="2.318857">
        <ele>219.3</ele>
        <time>2019-06-23T13:05:10Z</time>
      </trkpt>
      <trkpt lat="43.636218" lon="2.318899">
        <ele>219.1</ele>
        <time>2019-06-23T13:05:22Z</time>
      </trkpt>
      <trkpt lat="43.636346" lon="2.318949">
        <ele>219.1</ele>
        <time>2019-06-23T13:05:33Z</time>
      </trkpt>
      <trkpt lat="43.636460" lon="2.318992">
        <ele>218.7</ele>
        <time>2019-06-23T13:05:44Z</time>
      </trkpt>
      <trkpt lat="43.636614" lon="2.319009">
        <ele>218.6</ele>
        <time>2019-06-23T13:05:55Z</time>
      </trkpt>
      <trkpt lat="43.636631" lon="2.319030">
        <ele>240.9</ele>
        <time>2019-06-23T13:05:59Z</time>
      </trkpt>
    </trkseg>
  </trk>
</gpx>

